<?xml version='1.0' encoding='UTF-8'?>
<gpx version="1.1" creator="https://www.komoot.de" xmlns="http://www.topografix.com/GPX/1/1" xmlns:xsi="http://www.w3.org/2001/XMLSchema-instance" xsi:schemaLocation="http://www.topografix.com/GPX/1/1 http://www.topografix.com/GPX/1/1/gpx.xsd">
  <metadata>
    <name>36_640BuusGelterkSiflue</name>
    <author>
      <link href="https://www.komoot.de">
        <text>komoot</text>
        <type>text/html</type>
      </link>
    </author>
  </metadata>
  <trk>
    <name>36_640BuusGelterkSiflue</name>
    <trkseg>
      <trkpt lat="47.541438" lon="7.870769">
        <ele>339.090931</ele>
        <time>2021-11-07T10:15:12.437Z</time>
      </trkpt>
      <trkpt lat="47.541576" lon="7.870664">
        <ele>339.090931</ele>
        <time>2021-11-07T10:15:14.478Z</time>
      </trkpt>
      <trkpt lat="47.541550" lon="7.870601">
        <ele>339.090931</ele>
        <time>2021-11-07T10:15:15.289Z</time>
      </trkpt>
      <trkpt lat="47.541521" lon="7.870517">
        <ele>339.090931</ele>
        <time>2021-11-07T10:15:16.346Z</time>
      </trkpt>
      <trkpt lat="47.541606" lon="7.870424">
        <ele>339.090931</ele>
        <time>2021-11-07T10:15:18.073Z</time>
      </trkpt>
      <trkpt lat="47.541910" lon="7.870106">
        <ele>339.090931</ele>
        <time>2021-11-07T10:15:23.914Z</time>
      </trkpt>
      <trkpt lat="47.542014" lon="7.870126">
        <ele>339.090931</ele>
        <time>2021-11-07T10:15:25.430Z</time>
      </trkpt>
      <trkpt lat="47.542118" lon="7.870135">
        <ele>339.034659</ele>
        <time>2021-11-07T10:15:27.184Z</time>
      </trkpt>
      <trkpt lat="47.542181" lon="7.870131">
        <ele>338.971552</ele>
        <time>2021-11-07T10:15:28.072Z</time>
      </trkpt>
      <trkpt lat="47.542317" lon="7.870012">
        <ele>338.813476</ele>
        <time>2021-11-07T10:15:30.262Z</time>
      </trkpt>
      <trkpt lat="47.542348" lon="7.869983">
        <ele>338.776784</ele>
        <time>2021-11-07T10:15:30.709Z</time>
      </trkpt>
      <trkpt lat="47.542329" lon="7.869820">
        <ele>338.665035</ele>
        <time>2021-11-07T10:15:32.505Z</time>
      </trkpt>
      <trkpt lat="47.542372" lon="7.869746">
        <ele>338.599072</ele>
        <time>2021-11-07T10:15:33.330Z</time>
      </trkpt>
      <trkpt lat="47.542657" lon="7.869354">
        <ele>338.209863</ele>
        <time>2021-11-07T10:15:38.188Z</time>
      </trkpt>
      <trkpt lat="47.542696" lon="7.869257">
        <ele>338.133590</ele>
        <time>2021-11-07T10:15:39.124Z</time>
      </trkpt>
      <trkpt lat="47.542722" lon="7.869201">
        <ele>338.087673</ele>
        <time>2021-11-07T10:15:39.715Z</time>
      </trkpt>
      <trkpt lat="47.543049" lon="7.868759">
        <ele>337.644662</ele>
        <time>2021-11-07T10:15:44.628Z</time>
      </trkpt>
      <trkpt lat="47.543105" lon="7.868711">
        <ele>337.579913</ele>
        <time>2021-11-07T10:15:45.366Z</time>
      </trkpt>
      <trkpt lat="47.543201" lon="7.868657">
        <ele>337.477145</ele>
        <time>2021-11-07T10:15:46.445Z</time>
      </trkpt>
      <trkpt lat="47.543657" lon="7.868359">
        <ele>336.901909</ele>
        <time>2021-11-07T10:15:52.240Z</time>
      </trkpt>
      <trkpt lat="47.543801" lon="7.868269">
        <ele>336.707234</ele>
        <time>2021-11-07T10:15:54.719Z</time>
      </trkpt>
      <trkpt lat="47.544214" lon="7.867988">
        <ele>336.141144</ele>
        <time>2021-11-07T10:16:02.336Z</time>
      </trkpt>
      <trkpt lat="47.544246" lon="7.867967">
        <ele>336.097549</ele>
        <time>2021-11-07T10:16:02.933Z</time>
      </trkpt>
      <trkpt lat="47.544410" lon="7.867825">
        <ele>335.860940</ele>
        <time>2021-11-07T10:16:06.186Z</time>
      </trkpt>
      <trkpt lat="47.544469" lon="7.867776">
        <ele>335.776690</ele>
        <time>2021-11-07T10:16:07.207Z</time>
      </trkpt>
      <trkpt lat="47.544568" lon="7.867693">
        <ele>335.634999</ele>
        <time>2021-11-07T10:16:09.135Z</time>
      </trkpt>
      <trkpt lat="47.545003" lon="7.867278">
        <ele>335.099682</ele>
        <time>2021-11-07T10:16:17.983Z</time>
      </trkpt>
      <trkpt lat="47.545160" lon="7.866985">
        <ele>335.357590</ele>
        <time>2021-11-07T10:16:22.633Z</time>
      </trkpt>
      <trkpt lat="47.545240" lon="7.866887">
        <ele>335.463613</ele>
        <time>2021-11-07T10:16:24.907Z</time>
      </trkpt>
      <trkpt lat="47.546096" lon="7.866147">
        <ele>336.475847</ele>
        <time>2021-11-07T10:16:49.977Z</time>
      </trkpt>
      <trkpt lat="47.546327" lon="7.865959">
        <ele>336.745034</ele>
        <time>2021-11-07T10:16:57.714Z</time>
      </trkpt>
      <trkpt lat="47.546510" lon="7.865766">
        <ele>337.054564</ele>
        <time>2021-11-07T10:17:04.815Z</time>
      </trkpt>
      <trkpt lat="47.546819" lon="7.865489">
        <ele>337.763383</ele>
        <time>2021-11-07T10:17:15.046Z</time>
      </trkpt>
      <trkpt lat="47.546889" lon="7.865225">
        <ele>338.139126</ele>
        <time>2021-11-07T10:17:20.238Z</time>
      </trkpt>
      <trkpt lat="47.546894" lon="7.864837">
        <ele>338.653212</ele>
        <time>2021-11-07T10:17:27.658Z</time>
      </trkpt>
      <trkpt lat="47.546885" lon="7.864500">
        <ele>339.099994</ele>
        <time>2021-11-07T10:17:34.446Z</time>
      </trkpt>
      <trkpt lat="47.546877" lon="7.864345">
        <ele>339.305925</ele>
        <time>2021-11-07T10:17:37.340Z</time>
      </trkpt>
      <trkpt lat="47.546592" lon="7.863006">
        <ele>340.663848</ele>
        <time>2021-11-07T10:18:03.349Z</time>
      </trkpt>
      <trkpt lat="47.546526" lon="7.861665">
        <ele>341.250127</ele>
        <time>2021-11-07T10:18:24.081Z</time>
      </trkpt>
      <trkpt lat="47.546487" lon="7.859119">
        <ele>341.186037</ele>
        <time>2021-11-07T10:18:56.701Z</time>
      </trkpt>
      <trkpt lat="47.546537" lon="7.857497">
        <ele>340.865635</ele>
        <time>2021-11-07T10:19:17.713Z</time>
      </trkpt>
      <trkpt lat="47.546582" lon="7.856413">
        <ele>340.679496</ele>
        <time>2021-11-07T10:19:32.067Z</time>
      </trkpt>
      <trkpt lat="47.546945" lon="7.851719">
        <ele>339.197093</ele>
        <time>2021-11-07T10:20:33.101Z</time>
      </trkpt>
      <trkpt lat="47.547141" lon="7.850355">
        <ele>338.250586</ele>
        <time>2021-11-07T10:20:48.667Z</time>
      </trkpt>
      <trkpt lat="47.547143" lon="7.849985">
        <ele>337.781095</ele>
        <time>2021-11-07T10:20:52.575Z</time>
      </trkpt>
      <trkpt lat="47.547124" lon="7.848795">
        <ele>336.189379</ele>
        <time>2021-11-07T10:21:05.173Z</time>
      </trkpt>
      <trkpt lat="47.547274" lon="7.845536">
        <ele>332.210550</ele>
        <time>2021-11-07T10:21:39.932Z</time>
      </trkpt>
      <trkpt lat="47.547295" lon="7.844722">
        <ele>331.676345</ele>
        <time>2021-11-07T10:21:49.415Z</time>
      </trkpt>
      <trkpt lat="47.547313" lon="7.843735">
        <ele>332.001081</ele>
        <time>2021-11-07T10:22:02.067Z</time>
      </trkpt>
      <trkpt lat="47.547354" lon="7.842839">
        <ele>332.296446</ele>
        <time>2021-11-07T10:22:16.455Z</time>
      </trkpt>
      <trkpt lat="47.547448" lon="7.842262">
        <ele>332.694159</ele>
        <time>2021-11-07T10:22:27.704Z</time>
      </trkpt>
      <trkpt lat="47.547314" lon="7.842270">
        <ele>333.217185</ele>
        <time>2021-11-07T10:22:31.703Z</time>
      </trkpt>
      <trkpt lat="47.547149" lon="7.842268">
        <ele>333.860707</ele>
        <time>2021-11-07T10:22:36.853Z</time>
      </trkpt>
      <trkpt lat="47.546951" lon="7.842267">
        <ele>334.632913</ele>
        <time>2021-11-07T10:22:43.078Z</time>
      </trkpt>
      <trkpt lat="47.546843" lon="7.842270">
        <ele>335.054188</ele>
        <time>2021-11-07T10:22:46.078Z</time>
      </trkpt>
      <trkpt lat="47.545011" lon="7.842239">
        <ele>344.102813</ele>
        <time>2021-11-07T10:23:48.445Z</time>
      </trkpt>
      <trkpt lat="47.544939" lon="7.842229">
        <ele>344.582055</ele>
        <time>2021-11-07T10:23:51.956Z</time>
      </trkpt>
      <trkpt lat="47.544480" lon="7.842116">
        <ele>347.665599</ele>
        <time>2021-11-07T10:24:10.558Z</time>
      </trkpt>
      <trkpt lat="47.543343" lon="7.841595">
        <ele>358.550811</ele>
        <time>2021-11-07T10:25:10.133Z</time>
      </trkpt>
      <trkpt lat="47.543032" lon="7.841467">
        <ele>362.233122</ele>
        <time>2021-11-07T10:25:29.160Z</time>
      </trkpt>
      <trkpt lat="47.542890" lon="7.841434">
        <ele>363.872887</ele>
        <time>2021-11-07T10:25:38.859Z</time>
      </trkpt>
      <trkpt lat="47.542795" lon="7.841432">
        <ele>364.956769</ele>
        <time>2021-11-07T10:25:45.032Z</time>
      </trkpt>
      <trkpt lat="47.542781" lon="7.841430">
        <ele>365.117223</ele>
        <time>2021-11-07T10:25:46.114Z</time>
      </trkpt>
      <trkpt lat="47.542339" lon="7.841424">
        <ele>370.159825</ele>
        <time>2021-11-07T10:26:16.076Z</time>
      </trkpt>
      <trkpt lat="47.542097" lon="7.841420">
        <ele>373.090358</ele>
        <time>2021-11-07T10:26:34.207Z</time>
      </trkpt>
      <trkpt lat="47.541583" lon="7.841568">
        <ele>380.072521</ele>
        <time>2021-11-07T10:27:11.738Z</time>
      </trkpt>
      <trkpt lat="47.541483" lon="7.841624">
        <ele>381.498062</ele>
        <time>2021-11-07T10:27:19.338Z</time>
      </trkpt>
      <trkpt lat="47.541409" lon="7.841671">
        <ele>382.571681</ele>
        <time>2021-11-07T10:27:25.465Z</time>
      </trkpt>
      <trkpt lat="47.541351" lon="7.841740">
        <ele>383.563604</ele>
        <time>2021-11-07T10:27:30.752Z</time>
      </trkpt>
      <trkpt lat="47.541050" lon="7.841906">
        <ele>387.846390</ele>
        <time>2021-11-07T10:27:52.319Z</time>
      </trkpt>
      <trkpt lat="47.540817" lon="7.841934">
        <ele>390.963516</ele>
        <time>2021-11-07T10:28:07.388Z</time>
      </trkpt>
      <trkpt lat="47.540744" lon="7.841906">
        <ele>391.969030</ele>
        <time>2021-11-07T10:28:13.625Z</time>
      </trkpt>
      <trkpt lat="47.540531" lon="7.841825">
        <ele>394.901358</ele>
        <time>2021-11-07T10:28:26.510Z</time>
      </trkpt>
      <trkpt lat="47.540305" lon="7.841591">
        <ele>397.997634</ele>
        <time>2021-11-07T10:28:44.880Z</time>
      </trkpt>
      <trkpt lat="47.540168" lon="7.841414">
        <ele>399.896202</ele>
        <time>2021-11-07T10:28:56.691Z</time>
      </trkpt>
      <trkpt lat="47.540066" lon="7.841269">
        <ele>401.372668</ele>
        <time>2021-11-07T10:29:05.176Z</time>
      </trkpt>
      <trkpt lat="47.539702" lon="7.840734">
        <ele>406.728050</ele>
        <time>2021-11-07T10:29:30.673Z</time>
      </trkpt>
      <trkpt lat="47.539657" lon="7.840668">
        <ele>407.389422</ele>
        <time>2021-11-07T10:29:35.160Z</time>
      </trkpt>
      <trkpt lat="47.539459" lon="7.840353">
        <ele>410.423999</ele>
        <time>2021-11-07T10:29:50.179Z</time>
      </trkpt>
      <trkpt lat="47.539357" lon="7.840201">
        <ele>411.935067</ele>
        <time>2021-11-07T10:29:57.951Z</time>
      </trkpt>
      <trkpt lat="47.539226" lon="7.839805">
        <ele>415.001759</ele>
        <time>2021-11-07T10:30:14.657Z</time>
      </trkpt>
      <trkpt lat="47.538868" lon="7.838681">
        <ele>422.726811</ele>
        <time>2021-11-07T10:31:01.038Z</time>
      </trkpt>
      <trkpt lat="47.538837" lon="7.838580">
        <ele>423.416444</ele>
        <time>2021-11-07T10:31:06.149Z</time>
      </trkpt>
      <trkpt lat="47.538810" lon="7.838491">
        <ele>424.022940</ele>
        <time>2021-11-07T10:31:09.233Z</time>
      </trkpt>
      <trkpt lat="47.538712" lon="7.838169">
        <ele>426.218417</ele>
        <time>2021-11-07T10:31:20.438Z</time>
      </trkpt>
      <trkpt lat="47.538612" lon="7.837844">
        <ele>428.438484</ele>
        <time>2021-11-07T10:31:31.990Z</time>
      </trkpt>
      <trkpt lat="47.538505" lon="7.837464">
        <ele>430.997718</ele>
        <time>2021-11-07T10:31:44.531Z</time>
      </trkpt>
      <trkpt lat="47.538410" lon="7.837106">
        <ele>432.923749</ele>
        <time>2021-11-07T10:31:56.990Z</time>
      </trkpt>
      <trkpt lat="47.538222" lon="7.835464">
        <ele>441.029615</ele>
        <time>2021-11-07T10:32:47.819Z</time>
      </trkpt>
      <trkpt lat="47.538158" lon="7.835307">
        <ele>441.922248</ele>
        <time>2021-11-07T10:32:52.660Z</time>
      </trkpt>
      <trkpt lat="47.537707" lon="7.834801">
        <ele>445.650375</ele>
        <time>2021-11-07T10:33:13.947Z</time>
      </trkpt>
      <trkpt lat="47.537138" lon="7.834039">
        <ele>450.095731</ele>
        <time>2021-11-07T10:33:44.352Z</time>
      </trkpt>
      <trkpt lat="47.536897" lon="7.833599">
        <ele>452.312503</ele>
        <time>2021-11-07T10:34:00.154Z</time>
      </trkpt>
      <trkpt lat="47.536802" lon="7.833477">
        <ele>453.041154</ele>
        <time>2021-11-07T10:34:05.175Z</time>
      </trkpt>
      <trkpt lat="47.536644" lon="7.833357">
        <ele>454.070148</ele>
        <time>2021-11-07T10:34:11.515Z</time>
      </trkpt>
      <trkpt lat="47.536401" lon="7.833309">
        <ele>454.644276</ele>
        <time>2021-11-07T10:34:19.655Z</time>
      </trkpt>
      <trkpt lat="47.536091" lon="7.833355">
        <ele>454.660444</ele>
        <time>2021-11-07T10:34:29.400Z</time>
      </trkpt>
      <trkpt lat="47.535868" lon="7.833423">
        <ele>454.672260</ele>
        <time>2021-11-07T10:34:33.999Z</time>
      </trkpt>
      <trkpt lat="47.535301" lon="7.833465">
        <ele>454.701722</ele>
        <time>2021-11-07T10:34:42.163Z</time>
      </trkpt>
      <trkpt lat="47.535041" lon="7.833445">
        <ele>454.715233</ele>
        <time>2021-11-07T10:34:44.823Z</time>
      </trkpt>
      <trkpt lat="47.534869" lon="7.833423">
        <ele>454.724192</ele>
        <time>2021-11-07T10:34:46.404Z</time>
      </trkpt>
      <trkpt lat="47.534581" lon="7.833360">
        <ele>453.328219</ele>
        <time>2021-11-07T10:34:49.314Z</time>
      </trkpt>
      <trkpt lat="47.534536" lon="7.833350">
        <ele>452.973485</ele>
        <time>2021-11-07T10:34:49.697Z</time>
      </trkpt>
      <trkpt lat="47.534258" lon="7.833316">
        <ele>450.798895</ele>
        <time>2021-11-07T10:34:52.367Z</time>
      </trkpt>
      <trkpt lat="47.534141" lon="7.833324">
        <ele>449.885823</ele>
        <time>2021-11-07T10:34:53.386Z</time>
      </trkpt>
      <trkpt lat="47.534011" lon="7.833341">
        <ele>448.868436</ele>
        <time>2021-11-07T10:34:54.664Z</time>
      </trkpt>
      <trkpt lat="47.533862" lon="7.833372">
        <ele>447.695468</ele>
        <time>2021-11-07T10:34:55.977Z</time>
      </trkpt>
      <trkpt lat="47.533532" lon="7.833561">
        <ele>444.937245</ele>
        <time>2021-11-07T10:34:59.066Z</time>
      </trkpt>
      <trkpt lat="47.532636" lon="7.834081">
        <ele>437.787864</ele>
        <time>2021-11-07T10:35:07.277Z</time>
      </trkpt>
      <trkpt lat="47.532463" lon="7.834255">
        <ele>436.333294</ele>
        <time>2021-11-07T10:35:09.071Z</time>
      </trkpt>
      <trkpt lat="47.532205" lon="7.834515">
        <ele>434.162704</ele>
        <time>2021-11-07T10:35:11.848Z</time>
      </trkpt>
      <trkpt lat="47.532044" lon="7.834687">
        <ele>432.781905</ele>
        <time>2021-11-07T10:35:13.772Z</time>
      </trkpt>
      <trkpt lat="47.531889" lon="7.834953">
        <ele>431.131766</ele>
        <time>2021-11-07T10:35:15.944Z</time>
      </trkpt>
      <trkpt lat="47.531845" lon="7.835185">
        <ele>430.000040</ele>
        <time>2021-11-07T10:35:17.583Z</time>
      </trkpt>
      <trkpt lat="47.531842" lon="7.835360">
        <ele>429.177911</ele>
        <time>2021-11-07T10:35:18.634Z</time>
      </trkpt>
      <trkpt lat="47.531902" lon="7.835562">
        <ele>428.198007</ele>
        <time>2021-11-07T10:35:20.228Z</time>
      </trkpt>
      <trkpt lat="47.532166" lon="7.836191">
        <ele>428.238265</ele>
        <time>2021-11-07T10:35:25.554Z</time>
      </trkpt>
      <trkpt lat="47.532213" lon="7.836549">
        <ele>428.258090</ele>
        <time>2021-11-07T10:35:29.505Z</time>
      </trkpt>
      <trkpt lat="47.532075" lon="7.836901">
        <ele>428.280215</ele>
        <time>2021-11-07T10:35:34.272Z</time>
      </trkpt>
      <trkpt lat="47.531841" lon="7.837301">
        <ele>428.308984</ele>
        <time>2021-11-07T10:35:42.344Z</time>
      </trkpt>
      <trkpt lat="47.531768" lon="7.837658">
        <ele>428.329260</ele>
        <time>2021-11-07T10:35:48.861Z</time>
      </trkpt>
      <trkpt lat="47.531720" lon="7.837849">
        <ele>428.340338</ele>
        <time>2021-11-07T10:35:53.130Z</time>
      </trkpt>
      <trkpt lat="47.531704" lon="7.837885">
        <ele>428.342933</ele>
        <time>2021-11-07T10:35:53.823Z</time>
      </trkpt>
      <trkpt lat="47.531681" lon="7.837936">
        <ele>428.347902</ele>
        <time>2021-11-07T10:35:55.009Z</time>
      </trkpt>
      <trkpt lat="47.530895" lon="7.838718">
        <ele>428.461517</ele>
        <time>2021-11-07T10:36:14.297Z</time>
      </trkpt>
      <trkpt lat="47.530488" lon="7.839231">
        <ele>428.525644</ele>
        <time>2021-11-07T10:36:20.953Z</time>
      </trkpt>
      <trkpt lat="47.529858" lon="7.839444">
        <ele>426.699148</ele>
        <time>2021-11-07T10:36:27.617Z</time>
      </trkpt>
      <trkpt lat="47.529548" lon="7.839617">
        <ele>425.064416</ele>
        <time>2021-11-07T10:36:30.997Z</time>
      </trkpt>
      <trkpt lat="47.529245" lon="7.839917">
        <ele>423.265873</ele>
        <time>2021-11-07T10:36:34.474Z</time>
      </trkpt>
      <trkpt lat="47.529163" lon="7.839998">
        <ele>422.779487</ele>
        <time>2021-11-07T10:36:35.360Z</time>
      </trkpt>
      <trkpt lat="47.528485" lon="7.841355">
        <ele>415.091172</ele>
        <time>2021-11-07T10:36:45.551Z</time>
      </trkpt>
      <trkpt lat="47.528418" lon="7.841430">
        <ele>414.338367</ele>
        <time>2021-11-07T10:36:46.311Z</time>
      </trkpt>
      <trkpt lat="47.528193" lon="7.841373">
        <ele>412.292286</ele>
        <time>2021-11-07T10:36:48.267Z</time>
      </trkpt>
      <trkpt lat="47.527938" lon="7.841436">
        <ele>409.975008</ele>
        <time>2021-11-07T10:36:50.553Z</time>
      </trkpt>
      <trkpt lat="47.527351" lon="7.841981">
        <ele>403.764946</ele>
        <time>2021-11-07T10:36:56.542Z</time>
      </trkpt>
      <trkpt lat="47.527193" lon="7.842130">
        <ele>401.956590</ele>
        <time>2021-11-07T10:36:58.110Z</time>
      </trkpt>
      <trkpt lat="47.526899" lon="7.842437">
        <ele>398.449155</ele>
        <time>2021-11-07T10:37:01.158Z</time>
      </trkpt>
      <trkpt lat="47.526451" lon="7.843043">
        <ele>392.533283</ele>
        <time>2021-11-07T10:37:06.420Z</time>
      </trkpt>
      <trkpt lat="47.526312" lon="7.843288">
        <ele>390.426498</ele>
        <time>2021-11-07T10:37:08.276Z</time>
      </trkpt>
      <trkpt lat="47.526186" lon="7.843427">
        <ele>388.894599</ele>
        <time>2021-11-07T10:37:09.632Z</time>
      </trkpt>
      <trkpt lat="47.526076" lon="7.843504">
        <ele>387.708315</ele>
        <time>2021-11-07T10:37:10.657Z</time>
      </trkpt>
      <trkpt lat="47.525755" lon="7.843791">
        <ele>384.915860</ele>
        <time>2021-11-07T10:37:13.994Z</time>
      </trkpt>
      <trkpt lat="47.525593" lon="7.843962">
        <ele>383.825962</ele>
        <time>2021-11-07T10:37:15.831Z</time>
      </trkpt>
      <trkpt lat="47.525497" lon="7.844134">
        <ele>383.000437</ele>
        <time>2021-11-07T10:37:17.183Z</time>
      </trkpt>
      <trkpt lat="47.525447" lon="7.844752">
        <ele>380.697832</ele>
        <time>2021-11-07T10:37:21.073Z</time>
      </trkpt>
      <trkpt lat="47.525394" lon="7.844881">
        <ele>380.139212</ele>
        <time>2021-11-07T10:37:22.021Z</time>
      </trkpt>
      <trkpt lat="47.525394" lon="7.844881">
        <ele>380.139212</ele>
        <time>2021-11-07T10:37:22.073Z</time>
      </trkpt>
      <trkpt lat="47.525394" lon="7.844881">
        <ele>380.139212</ele>
        <time>2021-11-07T10:37:22.204Z</time>
      </trkpt>
      <trkpt lat="47.525370" lon="7.844925">
        <ele>379.929965</ele>
        <time>2021-11-07T10:37:22.579Z</time>
      </trkpt>
      <trkpt lat="47.525256" lon="7.845127">
        <ele>378.956053</ele>
        <time>2021-11-07T10:37:24.310Z</time>
      </trkpt>
      <trkpt lat="47.525219" lon="7.845193">
        <ele>378.638711</ele>
        <time>2021-11-07T10:37:24.882Z</time>
      </trkpt>
      <trkpt lat="47.525182" lon="7.845309">
        <ele>378.164108</ele>
        <time>2021-11-07T10:37:25.709Z</time>
      </trkpt>
      <trkpt lat="47.525131" lon="7.845562">
        <ele>377.187330</ele>
        <time>2021-11-07T10:37:27.567Z</time>
      </trkpt>
      <trkpt lat="47.525120" lon="7.845616">
        <ele>376.978668</ele>
        <time>2021-11-07T10:37:27.944Z</time>
      </trkpt>
      <trkpt lat="47.525112" lon="7.845716">
        <ele>376.606134</ele>
        <time>2021-11-07T10:37:28.599Z</time>
      </trkpt>
      <trkpt lat="47.525086" lon="7.846061">
        <ele>375.943812</ele>
        <time>2021-11-07T10:37:30.941Z</time>
      </trkpt>
      <trkpt lat="47.524994" lon="7.846574">
        <ele>375.421103</ele>
        <time>2021-11-07T10:37:34.726Z</time>
      </trkpt>
      <trkpt lat="47.524992" lon="7.846887">
        <ele>375.112850</ele>
        <time>2021-11-07T10:37:36.929Z</time>
      </trkpt>
      <trkpt lat="47.524971" lon="7.846998">
        <ele>374.999330</ele>
        <time>2021-11-07T10:37:37.908Z</time>
      </trkpt>
      <trkpt lat="47.524945" lon="7.847135">
        <ele>374.859186</ele>
        <time>2021-11-07T10:37:39.053Z</time>
      </trkpt>
      <trkpt lat="47.524945" lon="7.847135">
        <ele>374.859186</ele>
        <time>2021-11-07T10:37:39.179Z</time>
      </trkpt>
      <trkpt lat="47.524945" lon="7.847135">
        <ele>374.859186</ele>
        <time>2021-11-07T10:37:39.189Z</time>
      </trkpt>
      <trkpt lat="47.524647" lon="7.847044">
        <ele>374.415450</ele>
        <time>2021-11-07T10:37:42.940Z</time>
      </trkpt>
      <trkpt lat="47.524572" lon="7.846968">
        <ele>374.282916</ele>
        <time>2021-11-07T10:37:44.042Z</time>
      </trkpt>
      <trkpt lat="47.524504" lon="7.846866">
        <ele>374.141762</ele>
        <time>2021-11-07T10:37:45.293Z</time>
      </trkpt>
      <trkpt lat="47.524447" lon="7.846830">
        <ele>374.051391</ele>
        <time>2021-11-07T10:37:46.104Z</time>
      </trkpt>
      <trkpt lat="47.524142" lon="7.846731">
        <ele>373.596030</ele>
        <time>2021-11-07T10:37:51.204Z</time>
      </trkpt>
      <trkpt lat="47.524030" lon="7.846759">
        <ele>373.658071</ele>
        <time>2021-11-07T10:37:53.269Z</time>
      </trkpt>
      <trkpt lat="47.523919" lon="7.846774">
        <ele>373.814694</ele>
        <time>2021-11-07T10:37:55.355Z</time>
      </trkpt>
      <trkpt lat="47.523835" lon="7.846794">
        <ele>373.934245</ele>
        <time>2021-11-07T10:37:56.393Z</time>
      </trkpt>
      <trkpt lat="47.523802" lon="7.847022">
        <ele>374.155507</ele>
        <time>2021-11-07T10:37:59.169Z</time>
      </trkpt>
      <trkpt lat="47.523686" lon="7.847545">
        <ele>374.677863</ele>
        <time>2021-11-07T10:38:05.389Z</time>
      </trkpt>
      <trkpt lat="47.523555" lon="7.847886">
        <ele>375.050133</ele>
        <time>2021-11-07T10:38:09.763Z</time>
      </trkpt>
      <trkpt lat="47.523494" lon="7.848012">
        <ele>375.197246</ele>
        <time>2021-11-07T10:38:12.122Z</time>
      </trkpt>
      <trkpt lat="47.523462" lon="7.848071">
        <ele>375.269053</ele>
        <time>2021-11-07T10:38:13.427Z</time>
      </trkpt>
      <trkpt lat="47.522383" lon="7.849771">
        <ele>379.743981</ele>
        <time>2021-11-07T10:38:56.087Z</time>
      </trkpt>
      <trkpt lat="47.522016" lon="7.850249">
        <ele>381.532806</ele>
        <time>2021-11-07T10:39:11.347Z</time>
      </trkpt>
      <trkpt lat="47.521905" lon="7.850364">
        <ele>382.028616</ele>
        <time>2021-11-07T10:39:16.131Z</time>
      </trkpt>
      <trkpt lat="47.521788" lon="7.850457">
        <ele>382.514619</ele>
        <time>2021-11-07T10:39:20.461Z</time>
      </trkpt>
      <trkpt lat="47.521526" lon="7.850659">
        <ele>383.986190</ele>
        <time>2021-11-07T10:39:30.450Z</time>
      </trkpt>
      <trkpt lat="47.521382" lon="7.850770">
        <ele>384.827418</ele>
        <time>2021-11-07T10:39:35.658Z</time>
      </trkpt>
      <trkpt lat="47.520894" lon="7.851134">
        <ele>387.658844</ele>
        <time>2021-11-07T10:39:55.509Z</time>
      </trkpt>
      <trkpt lat="47.519998" lon="7.851794">
        <ele>393.022347</ele>
        <time>2021-11-07T10:40:31.937Z</time>
      </trkpt>
      <trkpt lat="47.519059" lon="7.852195">
        <ele>399.124498</ele>
        <time>2021-11-07T10:41:09.546Z</time>
      </trkpt>
      <trkpt lat="47.518404" lon="7.852651">
        <ele>403.726767</ele>
        <time>2021-11-07T10:41:39.526Z</time>
      </trkpt>
      <trkpt lat="47.518338" lon="7.852687">
        <ele>404.249443</ele>
        <time>2021-11-07T10:41:43.609Z</time>
      </trkpt>
      <trkpt lat="47.518274" lon="7.852715">
        <ele>404.745363</ele>
        <time>2021-11-07T10:41:46.816Z</time>
      </trkpt>
      <trkpt lat="47.517407" lon="7.852910">
        <ele>411.262085</ele>
        <time>2021-11-07T10:42:25.413Z</time>
      </trkpt>
      <trkpt lat="47.516157" lon="7.853414">
        <ele>420.022257</ele>
        <time>2021-11-07T10:43:24.817Z</time>
      </trkpt>
      <trkpt lat="47.515319" lon="7.853580">
        <ele>425.042783</ele>
        <time>2021-11-07T10:43:57.670Z</time>
      </trkpt>
      <trkpt lat="47.514548" lon="7.853897">
        <ele>428.154023</ele>
        <time>2021-11-07T10:44:21.226Z</time>
      </trkpt>
      <trkpt lat="47.513486" lon="7.854188">
        <ele>430.425539</ele>
        <time>2021-11-07T10:44:45.077Z</time>
      </trkpt>
      <trkpt lat="47.513406" lon="7.854237">
        <ele>430.607623</ele>
        <time>2021-11-07T10:44:46.055Z</time>
      </trkpt>
      <trkpt lat="47.513384" lon="7.854250">
        <ele>430.657442</ele>
        <time>2021-11-07T10:44:46.568Z</time>
      </trkpt>
      <trkpt lat="47.513112" lon="7.854470">
        <ele>431.005059</ele>
        <time>2021-11-07T10:44:52.134Z</time>
      </trkpt>
      <trkpt lat="47.513025" lon="7.854549">
        <ele>430.979605</ele>
        <time>2021-11-07T10:44:53.641Z</time>
      </trkpt>
      <trkpt lat="47.512998" lon="7.854574">
        <ele>430.971663</ele>
        <time>2021-11-07T10:44:54.841Z</time>
      </trkpt>
      <trkpt lat="47.512545" lon="7.855000">
        <ele>430.837823</ele>
        <time>2021-11-07T10:45:03.024Z</time>
      </trkpt>
      <trkpt lat="47.512091" lon="7.855323">
        <ele>430.712201</ele>
        <time>2021-11-07T10:45:09.942Z</time>
      </trkpt>
      <trkpt lat="47.510645" lon="7.856175">
        <ele>428.784506</ele>
        <time>2021-11-07T10:45:28.152Z</time>
      </trkpt>
      <trkpt lat="47.509866" lon="7.856623">
        <ele>427.465324</ele>
        <time>2021-11-07T10:45:37.020Z</time>
      </trkpt>
      <trkpt lat="47.509612" lon="7.856783">
        <ele>427.281329</ele>
        <time>2021-11-07T10:45:40.025Z</time>
      </trkpt>
      <trkpt lat="47.509242" lon="7.857142">
        <ele>426.986454</ele>
        <time>2021-11-07T10:45:45.193Z</time>
      </trkpt>
      <trkpt lat="47.509118" lon="7.857296">
        <ele>426.878569</ele>
        <time>2021-11-07T10:45:47.308Z</time>
      </trkpt>
      <trkpt lat="47.508916" lon="7.857621">
        <ele>426.679718</ele>
        <time>2021-11-07T10:45:51.335Z</time>
      </trkpt>
      <trkpt lat="47.508546" lon="7.858348">
        <ele>426.516801</ele>
        <time>2021-11-07T10:46:01.952Z</time>
      </trkpt>
      <trkpt lat="47.508474" lon="7.858558">
        <ele>426.832558</ele>
        <time>2021-11-07T10:46:05.457Z</time>
      </trkpt>
      <trkpt lat="47.508421" lon="7.858745">
        <ele>427.104460</ele>
        <time>2021-11-07T10:46:08.370Z</time>
      </trkpt>
      <trkpt lat="47.508381" lon="7.858911">
        <ele>427.340768</ele>
        <time>2021-11-07T10:46:10.779Z</time>
      </trkpt>
      <trkpt lat="47.508349" lon="7.859039">
        <ele>427.523765</ele>
        <time>2021-11-07T10:46:12.960Z</time>
      </trkpt>
      <trkpt lat="47.508332" lon="7.859103">
        <ele>427.615971</ele>
        <time>2021-11-07T10:46:14.038Z</time>
      </trkpt>
      <trkpt lat="47.508015" lon="7.860357">
        <ele>429.411199</ele>
        <time>2021-11-07T10:46:36.175Z</time>
      </trkpt>
      <trkpt lat="47.507928" lon="7.861309">
        <ele>430.985459</ele>
        <time>2021-11-07T10:46:52.394Z</time>
      </trkpt>
      <trkpt lat="47.507840" lon="7.861638">
        <ele>431.630246</ele>
        <time>2021-11-07T10:46:57.808Z</time>
      </trkpt>
      <trkpt lat="47.507768" lon="7.861796">
        <ele>431.977539</ele>
        <time>2021-11-07T10:47:01.221Z</time>
      </trkpt>
      <trkpt lat="47.507702" lon="7.861899">
        <ele>432.236236</ele>
        <time>2021-11-07T10:47:03.585Z</time>
      </trkpt>
      <trkpt lat="47.507509" lon="7.862078">
        <ele>432.850602</ele>
        <time>2021-11-07T10:47:09.120Z</time>
      </trkpt>
      <trkpt lat="47.507355" lon="7.862189">
        <ele>433.312652</ele>
        <time>2021-11-07T10:47:13.664Z</time>
      </trkpt>
      <trkpt lat="47.507294" lon="7.862232">
        <ele>433.494907</ele>
        <time>2021-11-07T10:47:14.990Z</time>
      </trkpt>
      <trkpt lat="47.506679" lon="7.862634">
        <ele>435.515543</ele>
        <time>2021-11-07T10:47:33.859Z</time>
      </trkpt>
      <trkpt lat="47.506544" lon="7.862713">
        <ele>436.053433</ele>
        <time>2021-11-07T10:47:37.835Z</time>
      </trkpt>
      <trkpt lat="47.506248" lon="7.862922">
        <ele>437.268595</ele>
        <time>2021-11-07T10:47:47.544Z</time>
      </trkpt>
      <trkpt lat="47.506215" lon="7.862947">
        <ele>437.405954</ele>
        <time>2021-11-07T10:47:48.991Z</time>
      </trkpt>
      <trkpt lat="47.506122" lon="7.863012">
        <ele>437.787031</ele>
        <time>2021-11-07T10:47:52.192Z</time>
      </trkpt>
      <trkpt lat="47.505782" lon="7.863270">
        <ele>439.202730</ele>
        <time>2021-11-07T10:48:02.964Z</time>
      </trkpt>
      <trkpt lat="47.505748" lon="7.863314">
        <ele>439.370066</ele>
        <time>2021-11-07T10:48:05.139Z</time>
      </trkpt>
      <trkpt lat="47.505692" lon="7.863406">
        <ele>439.680043</ele>
        <time>2021-11-07T10:48:06.833Z</time>
      </trkpt>
      <trkpt lat="47.505675" lon="7.863444">
        <ele>439.794126</ele>
        <time>2021-11-07T10:48:07.468Z</time>
      </trkpt>
      <trkpt lat="47.505633" lon="7.863539">
        <ele>440.078315</ele>
        <time>2021-11-07T10:48:10.204Z</time>
      </trkpt>
      <trkpt lat="47.505528" lon="7.864048">
        <ele>441.410450</ele>
        <time>2021-11-07T10:48:21.035Z</time>
      </trkpt>
      <trkpt lat="47.505513" lon="7.864163">
        <ele>441.835521</ele>
        <time>2021-11-07T10:48:23.352Z</time>
      </trkpt>
      <trkpt lat="47.505507" lon="7.864261">
        <ele>442.195874</ele>
        <time>2021-11-07T10:48:25.677Z</time>
      </trkpt>
      <trkpt lat="47.505465" lon="7.864478">
        <ele>443.022517</ele>
        <time>2021-11-07T10:48:30.108Z</time>
      </trkpt>
      <trkpt lat="47.505441" lon="7.864505">
        <ele>443.185931</ele>
        <time>2021-11-07T10:48:31.393Z</time>
      </trkpt>
      <trkpt lat="47.505405" lon="7.864527">
        <ele>443.397066</ele>
        <time>2021-11-07T10:48:32.916Z</time>
      </trkpt>
      <trkpt lat="47.505256" lon="7.864486">
        <ele>444.218647</ele>
        <time>2021-11-07T10:48:38.730Z</time>
      </trkpt>
      <trkpt lat="47.504995" lon="7.864288">
        <ele>445.808530</ele>
        <time>2021-11-07T10:48:47.890Z</time>
      </trkpt>
      <trkpt lat="47.504952" lon="7.864282">
        <ele>446.042671</ele>
        <time>2021-11-07T10:48:49.447Z</time>
      </trkpt>
      <trkpt lat="47.504920" lon="7.864294">
        <ele>446.221626</ele>
        <time>2021-11-07T10:48:51.491Z</time>
      </trkpt>
      <trkpt lat="47.504643" lon="7.864558">
        <ele>448.007583</ele>
        <time>2021-11-07T10:49:03.041Z</time>
      </trkpt>
      <trkpt lat="47.504308" lon="7.864735">
        <ele>449.935865</ele>
        <time>2021-11-07T10:49:16.462Z</time>
      </trkpt>
      <trkpt lat="47.504143" lon="7.864781">
        <ele>450.846072</ele>
        <time>2021-11-07T10:49:24.464Z</time>
      </trkpt>
      <trkpt lat="47.503852" lon="7.864881">
        <ele>453.201812</ele>
        <time>2021-11-07T10:49:37.596Z</time>
      </trkpt>
      <trkpt lat="47.503302" lon="7.865016">
        <ele>457.940856</ele>
        <time>2021-11-07T10:50:00.973Z</time>
      </trkpt>
      <trkpt lat="47.503247" lon="7.865009">
        <ele>458.410102</ele>
        <time>2021-11-07T10:50:04.296Z</time>
      </trkpt>
      <trkpt lat="47.503195" lon="7.864995">
        <ele>458.859373</ele>
        <time>2021-11-07T10:50:06.915Z</time>
      </trkpt>
      <trkpt lat="47.503152" lon="7.864980">
        <ele>459.234901</ele>
        <time>2021-11-07T10:50:10.669Z</time>
      </trkpt>
      <trkpt lat="47.503106" lon="7.864958">
        <ele>459.645821</ele>
        <time>2021-11-07T10:50:12.719Z</time>
      </trkpt>
      <trkpt lat="47.503068" lon="7.864937">
        <ele>459.990611</ele>
        <time>2021-11-07T10:50:14.691Z</time>
      </trkpt>
      <trkpt lat="47.502975" lon="7.864876">
        <ele>460.855278</ele>
        <time>2021-11-07T10:50:17.992Z</time>
      </trkpt>
      <trkpt lat="47.502843" lon="7.864785">
        <ele>462.093045</ele>
        <time>2021-11-07T10:50:25.779Z</time>
      </trkpt>
      <trkpt lat="47.502827" lon="7.864774">
        <ele>462.243005</ele>
        <time>2021-11-07T10:50:27.727Z</time>
      </trkpt>
      <trkpt lat="47.502294" lon="7.864417">
        <ele>467.372307</ele>
        <time>2021-11-07T10:50:58.072Z</time>
      </trkpt>
      <trkpt lat="47.502167" lon="7.864327">
        <ele>468.816299</ele>
        <time>2021-11-07T10:51:08.101Z</time>
      </trkpt>
      <trkpt lat="47.502040" lon="7.864236">
        <ele>470.263298</ele>
        <time>2021-11-07T10:51:15.057Z</time>
      </trkpt>
      <trkpt lat="47.501887" lon="7.864052">
        <ele>472.284941</ele>
        <time>2021-11-07T10:51:26.155Z</time>
      </trkpt>
      <trkpt lat="47.501772" lon="7.863893">
        <ele>473.898751</ele>
        <time>2021-11-07T10:51:35.792Z</time>
      </trkpt>
      <trkpt lat="47.501711" lon="7.863821">
        <ele>474.698861</ele>
        <time>2021-11-07T10:51:39.014Z</time>
      </trkpt>
      <trkpt lat="47.501653" lon="7.863755">
        <ele>475.449119</ele>
        <time>2021-11-07T10:51:43.085Z</time>
      </trkpt>
      <trkpt lat="47.501511" lon="7.863635">
        <ele>477.125989</ele>
        <time>2021-11-07T10:51:53.401Z</time>
      </trkpt>
      <trkpt lat="47.501300" lon="7.863507">
        <ele>479.464539</ele>
        <time>2021-11-07T10:52:05.187Z</time>
      </trkpt>
      <trkpt lat="47.501035" lon="7.863348">
        <ele>482.396983</ele>
        <time>2021-11-07T10:52:19.955Z</time>
      </trkpt>
      <trkpt lat="47.500468" lon="7.862843">
        <ele>490.696144</ele>
        <time>2021-11-07T10:52:56.993Z</time>
      </trkpt>
      <trkpt lat="47.499952" lon="7.862524">
        <ele>498.458524</ele>
        <time>2021-11-07T10:53:37.668Z</time>
      </trkpt>
      <trkpt lat="47.499629" lon="7.862416">
        <ele>503.055155</ele>
        <time>2021-11-07T10:54:00.727Z</time>
      </trkpt>
      <trkpt lat="47.499406" lon="7.862482">
        <ele>506.211957</ele>
        <time>2021-11-07T10:54:15.786Z</time>
      </trkpt>
      <trkpt lat="47.499376" lon="7.862501">
        <ele>506.664915</ele>
        <time>2021-11-07T10:54:19.493Z</time>
      </trkpt>
      <trkpt lat="47.499273" lon="7.862595">
        <ele>508.344611</ele>
        <time>2021-11-07T10:54:30.553Z</time>
      </trkpt>
      <trkpt lat="47.499113" lon="7.862818">
        <ele>511.445314</ele>
        <time>2021-11-07T10:54:46.918Z</time>
      </trkpt>
      <trkpt lat="47.498820" lon="7.863196">
        <ele>517.017788</ele>
        <time>2021-11-07T10:55:21.658Z</time>
      </trkpt>
      <trkpt lat="47.498580" lon="7.863425">
        <ele>521.111706</ele>
        <time>2021-11-07T10:55:39.289Z</time>
      </trkpt>
      <trkpt lat="47.498435" lon="7.863451">
        <ele>523.205794</ele>
        <time>2021-11-07T10:55:54.837Z</time>
      </trkpt>
      <trkpt lat="47.498210" lon="7.863375">
        <ele>526.514589</ele>
        <time>2021-11-07T10:56:06.286Z</time>
      </trkpt>
      <trkpt lat="47.498143" lon="7.863313">
        <ele>527.647462</ele>
        <time>2021-11-07T10:56:14.892Z</time>
      </trkpt>
      <trkpt lat="47.498094" lon="7.863239">
        <ele>528.651120</ele>
        <time>2021-11-07T10:56:18.860Z</time>
      </trkpt>
      <trkpt lat="47.498044" lon="7.863155">
        <ele>529.735521</ele>
        <time>2021-11-07T10:56:22.054Z</time>
      </trkpt>
      <trkpt lat="47.497989" lon="7.863021">
        <ele>531.254255</ele>
        <time>2021-11-07T10:56:27.361Z</time>
      </trkpt>
      <trkpt lat="47.497959" lon="7.862857">
        <ele>532.900026</ele>
        <time>2021-11-07T10:56:37.008Z</time>
      </trkpt>
      <trkpt lat="47.497995" lon="7.862394">
        <ele>536.740808</ele>
        <time>2021-11-07T10:56:55.483Z</time>
      </trkpt>
      <trkpt lat="47.498287" lon="7.861611">
        <ele>542.079193</ele>
        <time>2021-11-07T10:57:25.660Z</time>
      </trkpt>
      <trkpt lat="47.498322" lon="7.861024">
        <ele>545.596559</ele>
        <time>2021-11-07T10:57:47.762Z</time>
      </trkpt>
      <trkpt lat="47.498298" lon="7.860778">
        <ele>547.080140</ele>
        <time>2021-11-07T10:57:52.730Z</time>
      </trkpt>
      <trkpt lat="47.498262" lon="7.860571">
        <ele>548.355983</ele>
        <time>2021-11-07T10:57:59.289Z</time>
      </trkpt>
      <trkpt lat="47.498026" lon="7.859791">
        <ele>553.390155</ele>
        <time>2021-11-07T10:58:23.509Z</time>
      </trkpt>
      <trkpt lat="47.497901" lon="7.859533">
        <ele>555.218484</ele>
        <time>2021-11-07T10:58:33.984Z</time>
      </trkpt>
      <trkpt lat="47.497833" lon="7.859414">
        <ele>556.116036</ele>
        <time>2021-11-07T10:58:39.921Z</time>
      </trkpt>
      <trkpt lat="47.497149" lon="7.858438">
        <ele>564.214453</ele>
        <time>2021-11-07T10:59:29.803Z</time>
      </trkpt>
      <trkpt lat="47.497045" lon="7.858131">
        <ele>566.192239</ele>
        <time>2021-11-07T10:59:42.305Z</time>
      </trkpt>
      <trkpt lat="47.496867" lon="7.857284">
        <ele>568.817511</ele>
        <time>2021-11-07T11:00:08.735Z</time>
      </trkpt>
      <trkpt lat="47.496570" lon="7.856657">
        <ele>570.749674</ele>
        <time>2021-11-07T11:00:27.124Z</time>
      </trkpt>
      <trkpt lat="47.495985" lon="7.856090">
        <ele>573.361201</ele>
        <time>2021-11-07T11:00:41.205Z</time>
      </trkpt>
      <trkpt lat="47.495761" lon="7.855963">
        <ele>572.635167</ele>
        <time>2021-11-07T11:00:43.608Z</time>
      </trkpt>
      <trkpt lat="47.495682" lon="7.855928">
        <ele>572.184686</ele>
        <time>2021-11-07T11:00:45.293Z</time>
      </trkpt>
      <trkpt lat="47.495626" lon="7.855911">
        <ele>571.872400</ele>
        <time>2021-11-07T11:00:45.863Z</time>
      </trkpt>
      <trkpt lat="47.495339" lon="7.855822">
        <ele>570.270531</ele>
        <time>2021-11-07T11:00:48.628Z</time>
      </trkpt>
      <trkpt lat="47.495219" lon="7.855764">
        <ele>569.580925</ele>
        <time>2021-11-07T11:00:49.797Z</time>
      </trkpt>
      <trkpt lat="47.495162" lon="7.855728">
        <ele>569.242380</ele>
        <time>2021-11-07T11:00:50.324Z</time>
      </trkpt>
      <trkpt lat="47.494903" lon="7.855508">
        <ele>567.611058</ele>
        <time>2021-11-07T11:00:53.128Z</time>
      </trkpt>
      <trkpt lat="47.494791" lon="7.855375">
        <ele>566.826631</ele>
        <time>2021-11-07T11:00:54.370Z</time>
      </trkpt>
      <trkpt lat="47.494366" lon="7.854877">
        <ele>563.865393</ele>
        <time>2021-11-07T11:00:59.264Z</time>
      </trkpt>
      <trkpt lat="47.494198" lon="7.854677">
        <ele>562.106837</ele>
        <time>2021-11-07T11:01:01.129Z</time>
      </trkpt>
      <trkpt lat="47.494057" lon="7.854507">
        <ele>560.581693</ele>
        <time>2021-11-07T11:01:02.744Z</time>
      </trkpt>
      <trkpt lat="47.493734" lon="7.854034">
        <ele>556.771126</ele>
        <time>2021-11-07T11:01:06.703Z</time>
      </trkpt>
      <trkpt lat="47.493043" lon="7.852307">
        <ele>544.483136</ele>
        <time>2021-11-07T11:01:18.628Z</time>
      </trkpt>
      <trkpt lat="47.493033" lon="7.852285">
        <ele>544.291111</ele>
        <time>2021-11-07T11:01:18.779Z</time>
      </trkpt>
      <trkpt lat="47.492920" lon="7.852087">
        <ele>542.414103</ele>
        <time>2021-11-07T11:01:20.313Z</time>
      </trkpt>
      <trkpt lat="47.492804" lon="7.851886">
        <ele>540.499717</ele>
        <time>2021-11-07T11:01:21.814Z</time>
      </trkpt>
      <trkpt lat="47.492688" lon="7.851670">
        <ele>538.501479</ele>
        <time>2021-11-07T11:01:23.434Z</time>
      </trkpt>
      <trkpt lat="47.492659" lon="7.851591">
        <ele>537.850360</ele>
        <time>2021-11-07T11:01:23.931Z</time>
      </trkpt>
      <trkpt lat="47.492601" lon="7.850751">
        <ele>531.735207</ele>
        <time>2021-11-07T11:01:28.799Z</time>
      </trkpt>
      <trkpt lat="47.492541" lon="7.850563">
        <ele>530.229428</ele>
        <time>2021-11-07T11:01:29.973Z</time>
      </trkpt>
      <trkpt lat="47.492414" lon="7.850375">
        <ele>528.253670</ele>
        <time>2021-11-07T11:01:31.495Z</time>
      </trkpt>
      <trkpt lat="47.492293" lon="7.850293">
        <ele>526.762189</ele>
        <time>2021-11-07T11:01:32.603Z</time>
      </trkpt>
      <trkpt lat="47.492141" lon="7.850226">
        <ele>524.984742</ele>
        <time>2021-11-07T11:01:33.919Z</time>
      </trkpt>
      <trkpt lat="47.491187" lon="7.849815">
        <ele>513.849263</ele>
        <time>2021-11-07T11:01:42.404Z</time>
      </trkpt>
      <trkpt lat="47.490767" lon="7.849632">
        <ele>509.015419</ele>
        <time>2021-11-07T11:01:46.137Z</time>
      </trkpt>
      <trkpt lat="47.490721" lon="7.849614">
        <ele>508.607503</ele>
        <time>2021-11-07T11:01:46.559Z</time>
      </trkpt>
      <trkpt lat="47.490655" lon="7.849589">
        <ele>508.023436</ele>
        <time>2021-11-07T11:01:47.130Z</time>
      </trkpt>
      <trkpt lat="47.490088" lon="7.849193">
        <ele>502.648350</ele>
        <time>2021-11-07T11:01:52.681Z</time>
      </trkpt>
      <trkpt lat="47.489830" lon="7.849115">
        <ele>500.390798</ele>
        <time>2021-11-07T11:01:54.943Z</time>
      </trkpt>
      <trkpt lat="47.489714" lon="7.849112">
        <ele>499.396163</ele>
        <time>2021-11-07T11:01:56.014Z</time>
      </trkpt>
      <trkpt lat="47.489636" lon="7.849127">
        <ele>498.721836</ele>
        <time>2021-11-07T11:01:56.672Z</time>
      </trkpt>
      <trkpt lat="47.489366" lon="7.849261">
        <ele>496.280391</ele>
        <time>2021-11-07T11:01:59.245Z</time>
      </trkpt>
      <trkpt lat="47.489046" lon="7.849642">
        <ele>493.028072</ele>
        <time>2021-11-07T11:02:02.936Z</time>
      </trkpt>
      <trkpt lat="47.488993" lon="7.849683">
        <ele>492.643715</ele>
        <time>2021-11-07T11:02:03.443Z</time>
      </trkpt>
      <trkpt lat="47.488939" lon="7.849720">
        <ele>492.261268</ele>
        <time>2021-11-07T11:02:03.954Z</time>
      </trkpt>
      <trkpt lat="47.488639" lon="7.849855">
        <ele>490.246028</ele>
        <time>2021-11-07T11:02:06.753Z</time>
      </trkpt>
      <trkpt lat="47.488402" lon="7.849885">
        <ele>488.717290</ele>
        <time>2021-11-07T11:02:08.984Z</time>
      </trkpt>
      <trkpt lat="47.487361" lon="7.849792">
        <ele>482.183199</ele>
        <time>2021-11-07T11:02:18.418Z</time>
      </trkpt>
      <trkpt lat="47.487219" lon="7.849782">
        <ele>481.865263</ele>
        <time>2021-11-07T11:02:19.812Z</time>
      </trkpt>
      <trkpt lat="47.487073" lon="7.849767">
        <ele>481.537955</ele>
        <time>2021-11-07T11:02:21.367Z</time>
      </trkpt>
      <trkpt lat="47.486894" lon="7.849739">
        <ele>481.135400</ele>
        <time>2021-11-07T11:02:23.270Z</time>
      </trkpt>
      <trkpt lat="47.486773" lon="7.849704">
        <ele>480.859667</ele>
        <time>2021-11-07T11:02:24.535Z</time>
      </trkpt>
      <trkpt lat="47.486469" lon="7.849589">
        <ele>480.157922</ele>
        <time>2021-11-07T11:02:28.113Z</time>
      </trkpt>
      <trkpt lat="47.486303" lon="7.849650">
        <ele>479.775396</ele>
        <time>2021-11-07T11:02:30.581Z</time>
      </trkpt>
      <trkpt lat="47.486279" lon="7.849670">
        <ele>479.713795</ele>
        <time>2021-11-07T11:02:30.887Z</time>
      </trkpt>
      <trkpt lat="47.486240" lon="7.849728">
        <ele>479.590137</ele>
        <time>2021-11-07T11:02:31.542Z</time>
      </trkpt>
      <trkpt lat="47.486083" lon="7.849946">
        <ele>479.108642</ele>
        <time>2021-11-07T11:02:34.102Z</time>
      </trkpt>
      <trkpt lat="47.485987" lon="7.849975">
        <ele>478.889515</ele>
        <time>2021-11-07T11:02:36.408Z</time>
      </trkpt>
      <trkpt lat="47.485932" lon="7.849984">
        <ele>478.765760</ele>
        <time>2021-11-07T11:02:37.025Z</time>
      </trkpt>
      <trkpt lat="47.485834" lon="7.849993">
        <ele>478.546166</ele>
        <time>2021-11-07T11:02:37.997Z</time>
      </trkpt>
      <trkpt lat="47.485547" lon="7.850079">
        <ele>477.875333</ele>
        <time>2021-11-07T11:02:41.869Z</time>
      </trkpt>
      <trkpt lat="47.485423" lon="7.850124">
        <ele>477.577123</ele>
        <time>2021-11-07T11:02:43.141Z</time>
      </trkpt>
      <trkpt lat="47.485302" lon="7.850164">
        <ele>477.287536</ele>
        <time>2021-11-07T11:02:45.140Z</time>
      </trkpt>
      <trkpt lat="47.485140" lon="7.850236">
        <ele>476.892453</ele>
        <time>2021-11-07T11:02:47.109Z</time>
      </trkpt>
      <trkpt lat="47.484922" lon="7.850473">
        <ele>476.260623</ele>
        <time>2021-11-07T11:02:50.366Z</time>
      </trkpt>
      <trkpt lat="47.484736" lon="7.850560">
        <ele>475.804995</ele>
        <time>2021-11-07T11:02:52.301Z</time>
      </trkpt>
      <trkpt lat="47.484631" lon="7.850586">
        <ele>475.556336</ele>
        <time>2021-11-07T11:02:54.122Z</time>
      </trkpt>
      <trkpt lat="47.484548" lon="7.850572">
        <ele>475.361217</ele>
        <time>2021-11-07T11:02:55.000Z</time>
      </trkpt>
      <trkpt lat="47.484518" lon="7.850556">
        <ele>475.286733</ele>
        <time>2021-11-07T11:02:55.290Z</time>
      </trkpt>
      <trkpt lat="47.484352" lon="7.850459">
        <ele>474.869871</ele>
        <time>2021-11-07T11:02:56.921Z</time>
      </trkpt>
      <trkpt lat="47.484041" lon="7.850377">
        <ele>474.132025</ele>
        <time>2021-11-07T11:03:00.041Z</time>
      </trkpt>
      <trkpt lat="47.483128" lon="7.850517">
        <ele>471.260292</ele>
        <time>2021-11-07T11:03:09.555Z</time>
      </trkpt>
      <trkpt lat="47.483011" lon="7.850573">
        <ele>470.871663</ele>
        <time>2021-11-07T11:03:10.685Z</time>
      </trkpt>
      <trkpt lat="47.482915" lon="7.850629">
        <ele>470.545540</ele>
        <time>2021-11-07T11:03:11.687Z</time>
      </trkpt>
      <trkpt lat="47.482807" lon="7.850688">
        <ele>470.181699</ele>
        <time>2021-11-07T11:03:13.019Z</time>
      </trkpt>
      <trkpt lat="47.482794" lon="7.850696">
        <ele>470.137203</ele>
        <time>2021-11-07T11:03:13.177Z</time>
      </trkpt>
      <trkpt lat="47.482738" lon="7.850728">
        <ele>469.947482</ele>
        <time>2021-11-07T11:03:13.775Z</time>
      </trkpt>
      <trkpt lat="47.482665" lon="7.850768">
        <ele>469.701463</ele>
        <time>2021-11-07T11:03:14.545Z</time>
      </trkpt>
      <trkpt lat="47.482608" lon="7.850799">
        <ele>469.509538</ele>
        <time>2021-11-07T11:03:15.236Z</time>
      </trkpt>
      <trkpt lat="47.482358" lon="7.850933">
        <ele>468.669200</ele>
        <time>2021-11-07T11:03:19.365Z</time>
      </trkpt>
      <trkpt lat="47.481766" lon="7.851223">
        <ele>466.619675</ele>
        <time>2021-11-07T11:03:28.535Z</time>
      </trkpt>
      <trkpt lat="47.481608" lon="7.851297">
        <ele>466.071180</ele>
        <time>2021-11-07T11:03:30.781Z</time>
      </trkpt>
      <trkpt lat="47.481334" lon="7.851437">
        <ele>465.111793</ele>
        <time>2021-11-07T11:03:35.195Z</time>
      </trkpt>
      <trkpt lat="47.480852" lon="7.851729">
        <ele>463.388016</ele>
        <time>2021-11-07T11:03:43.104Z</time>
      </trkpt>
      <trkpt lat="47.480750" lon="7.851790">
        <ele>463.023901</ele>
        <time>2021-11-07T11:03:44.578Z</time>
      </trkpt>
      <trkpt lat="47.480646" lon="7.851849">
        <ele>462.655266</ele>
        <time>2021-11-07T11:03:46.037Z</time>
      </trkpt>
      <trkpt lat="47.480217" lon="7.852063">
        <ele>460.773511</ele>
        <time>2021-11-07T11:03:52.360Z</time>
      </trkpt>
      <trkpt lat="47.479485" lon="7.852237">
        <ele>457.570325</ele>
        <time>2021-11-07T11:04:02.443Z</time>
      </trkpt>
      <trkpt lat="47.479244" lon="7.852259">
        <ele>456.527096</ele>
        <time>2021-11-07T11:04:05.649Z</time>
      </trkpt>
      <trkpt lat="47.479117" lon="7.852270">
        <ele>455.977449</ele>
        <time>2021-11-07T11:04:07.541Z</time>
      </trkpt>
      <trkpt lat="47.476984" lon="7.852449">
        <ele>447.727849</ele>
        <time>2021-11-07T11:04:38.233Z</time>
      </trkpt>
      <trkpt lat="47.476792" lon="7.852449">
        <ele>446.701600</ele>
        <time>2021-11-07T11:04:40.791Z</time>
      </trkpt>
      <trkpt lat="47.476682" lon="7.852438">
        <ele>446.112303</ele>
        <time>2021-11-07T11:04:42.302Z</time>
      </trkpt>
      <trkpt lat="47.476520" lon="7.852417">
        <ele>445.243089</ele>
        <time>2021-11-07T11:04:44.421Z</time>
      </trkpt>
      <trkpt lat="47.476289" lon="7.852358">
        <ele>443.990120</ele>
        <time>2021-11-07T11:04:47.629Z</time>
      </trkpt>
      <trkpt lat="47.476190" lon="7.852326">
        <ele>443.448479</ele>
        <time>2021-11-07T11:04:48.910Z</time>
      </trkpt>
      <trkpt lat="47.476000" lon="7.852252">
        <ele>442.398322</ele>
        <time>2021-11-07T11:04:51.570Z</time>
      </trkpt>
      <trkpt lat="47.475712" lon="7.852137">
        <ele>440.803869</ele>
        <time>2021-11-07T11:04:55.494Z</time>
      </trkpt>
      <trkpt lat="47.475474" lon="7.852041">
        <ele>439.485318</ele>
        <time>2021-11-07T11:04:58.695Z</time>
      </trkpt>
      <trkpt lat="47.475005" lon="7.851847">
        <ele>437.087072</ele>
        <time>2021-11-07T11:05:05.173Z</time>
      </trkpt>
      <trkpt lat="47.474489" lon="7.851469">
        <ele>434.464730</ele>
        <time>2021-11-07T11:05:12.922Z</time>
      </trkpt>
      <trkpt lat="47.474073" lon="7.851261">
        <ele>432.464852</ele>
        <time>2021-11-07T11:05:19.059Z</time>
      </trkpt>
      <trkpt lat="47.473706" lon="7.851184">
        <ele>430.776686</ele>
        <time>2021-11-07T11:05:24.384Z</time>
      </trkpt>
      <trkpt lat="47.473275" lon="7.851189">
        <ele>428.935504</ele>
        <time>2021-11-07T11:05:30.602Z</time>
      </trkpt>
      <trkpt lat="47.473132" lon="7.851211">
        <ele>428.343974</ele>
        <time>2021-11-07T11:05:32.531Z</time>
      </trkpt>
      <trkpt lat="47.473090" lon="7.851217">
        <ele>428.170365</ele>
        <time>2021-11-07T11:05:33.097Z</time>
      </trkpt>
      <trkpt lat="47.472594" lon="7.851279">
        <ele>426.122355</ele>
        <time>2021-11-07T11:05:40.189Z</time>
      </trkpt>
      <trkpt lat="47.472223" lon="7.851237">
        <ele>424.591453</ele>
        <time>2021-11-07T11:05:45.426Z</time>
      </trkpt>
      <trkpt lat="47.472075" lon="7.851198">
        <ele>423.972938</ele>
        <time>2021-11-07T11:05:47.469Z</time>
      </trkpt>
      <trkpt lat="47.472010" lon="7.851173">
        <ele>423.696612</ele>
        <time>2021-11-07T11:05:48.374Z</time>
      </trkpt>
      <trkpt lat="47.471898" lon="7.851131">
        <ele>423.221227</ele>
        <time>2021-11-07T11:05:50.048Z</time>
      </trkpt>
      <trkpt lat="47.471670" lon="7.851035">
        <ele>422.172439</ele>
        <time>2021-11-07T11:05:53.174Z</time>
      </trkpt>
      <trkpt lat="47.471325" lon="7.850935">
        <ele>420.477956</ele>
        <time>2021-11-07T11:05:58.062Z</time>
      </trkpt>
      <trkpt lat="47.470525" lon="7.850877">
        <ele>416.617406</ele>
        <time>2021-11-07T11:06:08.935Z</time>
      </trkpt>
      <trkpt lat="47.470421" lon="7.850868">
        <ele>416.115279</ele>
        <time>2021-11-07T11:06:10.289Z</time>
      </trkpt>
      <trkpt lat="47.470145" lon="7.850841">
        <ele>414.782080</ele>
        <time>2021-11-07T11:06:14.080Z</time>
      </trkpt>
      <trkpt lat="47.469772" lon="7.850804">
        <ele>413.036999</ele>
        <time>2021-11-07T11:06:19.164Z</time>
      </trkpt>
      <trkpt lat="47.469555" lon="7.850782">
        <ele>412.046717</ele>
        <time>2021-11-07T11:06:22.056Z</time>
      </trkpt>
      <trkpt lat="47.469464" lon="7.850775">
        <ele>411.631850</ele>
        <time>2021-11-07T11:06:23.371Z</time>
      </trkpt>
      <trkpt lat="47.469352" lon="7.850770">
        <ele>411.121700</ele>
        <time>2021-11-07T11:06:24.414Z</time>
      </trkpt>
      <trkpt lat="47.469315" lon="7.850771">
        <ele>410.953217</ele>
        <time>2021-11-07T11:06:24.750Z</time>
      </trkpt>
      <trkpt lat="47.469115" lon="7.850772">
        <ele>410.042645</ele>
        <time>2021-11-07T11:06:26.689Z</time>
      </trkpt>
      <trkpt lat="47.468931" lon="7.850775">
        <ele>409.204873</ele>
        <time>2021-11-07T11:06:28.393Z</time>
      </trkpt>
      <trkpt lat="47.468807" lon="7.850777">
        <ele>408.640288</ele>
        <time>2021-11-07T11:06:29.597Z</time>
      </trkpt>
      <trkpt lat="47.468794" lon="7.850777">
        <ele>408.581101</ele>
        <time>2021-11-07T11:06:29.724Z</time>
      </trkpt>
      <trkpt lat="47.468646" lon="7.850779">
        <ele>407.907254</ele>
        <time>2021-11-07T11:06:31.228Z</time>
      </trkpt>
      <trkpt lat="47.468532" lon="7.850782">
        <ele>407.388149</ele>
        <time>2021-11-07T11:06:32.300Z</time>
      </trkpt>
      <trkpt lat="47.467007" lon="7.850894">
        <ele>401.686095</ele>
        <time>2021-11-07T11:06:47.273Z</time>
      </trkpt>
      <trkpt lat="47.466831" lon="7.850929">
        <ele>401.065391</ele>
        <time>2021-11-07T11:06:49.061Z</time>
      </trkpt>
      <trkpt lat="47.466767" lon="7.850952">
        <ele>400.835186</ele>
        <time>2021-11-07T11:06:49.772Z</time>
      </trkpt>
      <trkpt lat="47.466576" lon="7.851019">
        <ele>400.149072</ele>
        <time>2021-11-07T11:06:51.836Z</time>
      </trkpt>
      <trkpt lat="47.466513" lon="7.851046">
        <ele>399.919813</ele>
        <time>2021-11-07T11:06:52.514Z</time>
      </trkpt>
      <trkpt lat="47.466390" lon="7.851107">
        <ele>399.492765</ele>
        <time>2021-11-07T11:06:53.892Z</time>
      </trkpt>
      <trkpt lat="47.466015" lon="7.851377">
        <ele>398.646761</ele>
        <time>2021-11-07T11:06:58.304Z</time>
      </trkpt>
      <trkpt lat="47.465925" lon="7.851458">
        <ele>398.433062</ele>
        <time>2021-11-07T11:06:59.390Z</time>
      </trkpt>
      <trkpt lat="47.465914" lon="7.851427">
        <ele>398.385051</ele>
        <time>2021-11-07T11:06:59.632Z</time>
      </trkpt>
      <trkpt lat="47.465853" lon="7.851380">
        <ele>398.245534</ele>
        <time>2021-11-07T11:07:00.346Z</time>
      </trkpt>
      <trkpt lat="47.465829" lon="7.851383">
        <ele>398.196677</ele>
        <time>2021-11-07T11:07:00.601Z</time>
      </trkpt>
      <trkpt lat="47.465714" lon="7.850917">
        <ele>397.516397</ele>
        <time>2021-11-07T11:07:04.206Z</time>
      </trkpt>
      <trkpt lat="47.465620" lon="7.850585">
        <ele>397.022802</ele>
        <time>2021-11-07T11:07:06.979Z</time>
      </trkpt>
      <trkpt lat="47.465558" lon="7.850405">
        <ele>396.745771</ele>
        <time>2021-11-07T11:07:08.575Z</time>
      </trkpt>
      <trkpt lat="47.465348" lon="7.849875">
        <ele>395.903334</ele>
        <time>2021-11-07T11:07:13.488Z</time>
      </trkpt>
      <trkpt lat="47.465152" lon="7.849351">
        <ele>395.353588</ele>
        <time>2021-11-07T11:07:18.203Z</time>
      </trkpt>
      <trkpt lat="47.464952" lon="7.848443">
        <ele>394.489171</ele>
        <time>2021-11-07T11:07:25.690Z</time>
      </trkpt>
      <trkpt lat="47.464909" lon="7.848219">
        <ele>394.278397</ele>
        <time>2021-11-07T11:07:27.538Z</time>
      </trkpt>
      <trkpt lat="47.464885" lon="7.848078">
        <ele>394.146784</ele>
        <time>2021-11-07T11:07:28.660Z</time>
      </trkpt>
      <trkpt lat="47.464850" lon="7.847870">
        <ele>393.952764</ele>
        <time>2021-11-07T11:07:30.339Z</time>
      </trkpt>
      <trkpt lat="47.464820" lon="7.847644">
        <ele>393.744289</ele>
        <time>2021-11-07T11:07:32.245Z</time>
      </trkpt>
      <trkpt lat="47.464784" lon="7.847333">
        <ele>393.462792</ele>
        <time>2021-11-07T11:07:34.756Z</time>
      </trkpt>
      <trkpt lat="47.464771" lon="7.847028">
        <ele>393.268486</ele>
        <time>2021-11-07T11:07:37.241Z</time>
      </trkpt>
      <trkpt lat="47.464737" lon="7.846119">
        <ele>392.689655</ele>
        <time>2021-11-07T11:07:44.565Z</time>
      </trkpt>
      <trkpt lat="47.464585" lon="7.844988">
        <ele>391.956486</ele>
        <time>2021-11-07T11:07:54.362Z</time>
      </trkpt>
      <trkpt lat="47.464433" lon="7.844273">
        <ele>391.790569</ele>
        <time>2021-11-07T11:08:01.077Z</time>
      </trkpt>
      <trkpt lat="47.464386" lon="7.844088">
        <ele>391.794605</ele>
        <time>2021-11-07T11:08:02.725Z</time>
      </trkpt>
      <trkpt lat="47.464354" lon="7.843960">
        <ele>391.797392</ele>
        <time>2021-11-07T11:08:04.128Z</time>
      </trkpt>
      <trkpt lat="47.464234" lon="7.843434">
        <ele>391.808729</ele>
        <time>2021-11-07T11:08:09.300Z</time>
      </trkpt>
      <trkpt lat="47.464176" lon="7.843178">
        <ele>391.814243</ele>
        <time>2021-11-07T11:08:11.718Z</time>
      </trkpt>
      <trkpt lat="47.464165" lon="7.843130">
        <ele>391.815278</ele>
        <time>2021-11-07T11:08:12.252Z</time>
      </trkpt>
      <trkpt lat="47.464075" lon="7.842774">
        <ele>391.823039</ele>
        <time>2021-11-07T11:08:17.144Z</time>
      </trkpt>
      <trkpt lat="47.464053" lon="7.842690">
        <ele>391.824879</ele>
        <time>2021-11-07T11:08:17.867Z</time>
      </trkpt>
      <trkpt lat="47.463971" lon="7.842355">
        <ele>391.832155</ele>
        <time>2021-11-07T11:08:22.797Z</time>
      </trkpt>
      <trkpt lat="47.463922" lon="7.842123">
        <ele>391.844117</ele>
        <time>2021-11-07T11:08:25.127Z</time>
      </trkpt>
      <trkpt lat="47.463874" lon="7.841863">
        <ele>391.870067</ele>
        <time>2021-11-07T11:08:29.333Z</time>
      </trkpt>
      <trkpt lat="47.463685" lon="7.841203">
        <ele>391.939078</ele>
        <time>2021-11-07T11:08:37.723Z</time>
      </trkpt>
      <trkpt lat="47.463616" lon="7.840992">
        <ele>391.961645</ele>
        <time>2021-11-07T11:08:40.670Z</time>
      </trkpt>
      <trkpt lat="47.463588" lon="7.840904">
        <ele>391.971009</ele>
        <time>2021-11-07T11:08:41.563Z</time>
      </trkpt>
      <trkpt lat="47.463287" lon="7.840028">
        <ele>392.065620</ele>
        <time>2021-11-07T11:08:50.304Z</time>
      </trkpt>
      <trkpt lat="47.463133" lon="7.839561">
        <ele>391.901123</ele>
        <time>2021-11-07T11:08:54.876Z</time>
      </trkpt>
      <trkpt lat="47.463043" lon="7.839292">
        <ele>391.674472</ele>
        <time>2021-11-07T11:08:57.327Z</time>
      </trkpt>
      <trkpt lat="47.462982" lon="7.839106">
        <ele>391.518359</ele>
        <time>2021-11-07T11:08:59.723Z</time>
      </trkpt>
      <trkpt lat="47.462967" lon="7.839047">
        <ele>391.470759</ele>
        <time>2021-11-07T11:09:00.207Z</time>
      </trkpt>
      <trkpt lat="47.462936" lon="7.838934">
        <ele>391.378668</ele>
        <time>2021-11-07T11:09:01.152Z</time>
      </trkpt>
      <trkpt lat="47.462883" lon="7.838488">
        <ele>391.036705</ele>
        <time>2021-11-07T11:09:05.106Z</time>
      </trkpt>
      <trkpt lat="47.462873" lon="7.838016">
        <ele>390.680096</ele>
        <time>2021-11-07T11:09:08.856Z</time>
      </trkpt>
      <trkpt lat="47.462871" lon="7.837954">
        <ele>390.633223</ele>
        <time>2021-11-07T11:09:09.289Z</time>
      </trkpt>
      <trkpt lat="47.462869" lon="7.837866">
        <ele>390.566731</ele>
        <time>2021-11-07T11:09:09.883Z</time>
      </trkpt>
      <trkpt lat="47.462865" lon="7.837711">
        <ele>390.449596</ele>
        <time>2021-11-07T11:09:11.084Z</time>
      </trkpt>
      <trkpt lat="47.462856" lon="7.837506">
        <ele>390.294463</ele>
        <time>2021-11-07T11:09:12.820Z</time>
      </trkpt>
      <trkpt lat="47.462851" lon="7.837404">
        <ele>390.217235</ele>
        <time>2021-11-07T11:09:13.513Z</time>
      </trkpt>
      <trkpt lat="47.462748" lon="7.836556">
        <ele>389.809310</ele>
        <time>2021-11-07T11:09:20.050Z</time>
      </trkpt>
      <trkpt lat="47.462730" lon="7.836472">
        <ele>389.774083</ele>
        <time>2021-11-07T11:09:21.061Z</time>
      </trkpt>
      <trkpt lat="47.462700" lon="7.836337">
        <ele>389.717272</ele>
        <time>2021-11-07T11:09:22.590Z</time>
      </trkpt>
      <trkpt lat="47.462666" lon="7.836201">
        <ele>389.659304</ele>
        <time>2021-11-07T11:09:23.785Z</time>
      </trkpt>
      <trkpt lat="47.462666" lon="7.836201">
        <ele>389.659304</ele>
        <time>2021-11-07T11:09:23.797Z</time>
      </trkpt>
      <trkpt lat="47.463002" lon="7.835961">
        <ele>389.438665</ele>
        <time>2021-11-07T11:09:28.891Z</time>
      </trkpt>
      <trkpt lat="47.463331" lon="7.835778">
        <ele>389.230819</ele>
        <time>2021-11-07T11:09:34.334Z</time>
      </trkpt>
      <trkpt lat="47.463479" lon="7.835717">
        <ele>389.139968</ele>
        <time>2021-11-07T11:09:36.482Z</time>
      </trkpt>
      <trkpt lat="47.463575" lon="7.835732">
        <ele>389.082885</ele>
        <time>2021-11-07T11:09:37.797Z</time>
      </trkpt>
      <trkpt lat="47.463772" lon="7.835747">
        <ele>389.008139</ele>
        <time>2021-11-07T11:09:41.135Z</time>
      </trkpt>
      <trkpt lat="47.463847" lon="7.835742">
        <ele>388.999168</ele>
        <time>2021-11-07T11:09:42.076Z</time>
      </trkpt>
      <trkpt lat="47.463903" lon="7.835720">
        <ele>388.992245</ele>
        <time>2021-11-07T11:09:42.792Z</time>
      </trkpt>
      <trkpt lat="47.464007" lon="7.835605">
        <ele>388.976730</ele>
        <time>2021-11-07T11:09:44.983Z</time>
      </trkpt>
      <trkpt lat="47.464029" lon="7.835540">
        <ele>388.970858</ele>
        <time>2021-11-07T11:09:46.026Z</time>
      </trkpt>
      <trkpt lat="47.464048" lon="7.835487">
        <ele>388.966012</ele>
        <time>2021-11-07T11:09:46.503Z</time>
      </trkpt>
      <trkpt lat="47.464177" lon="7.834863">
        <ele>388.913302</ele>
        <time>2021-11-07T11:09:52.313Z</time>
      </trkpt>
      <trkpt lat="47.464222" lon="7.834781">
        <ele>388.904770</ele>
        <time>2021-11-07T11:09:53.236Z</time>
      </trkpt>
      <trkpt lat="47.464304" lon="7.834739">
        <ele>388.894402</ele>
        <time>2021-11-07T11:09:55.004Z</time>
      </trkpt>
      <trkpt lat="47.464673" lon="7.834652">
        <ele>388.849755</ele>
        <time>2021-11-07T11:10:00.466Z</time>
      </trkpt>
      <trkpt lat="47.464777" lon="7.834644">
        <ele>388.837311</ele>
        <time>2021-11-07T11:10:02.427Z</time>
      </trkpt>
      <trkpt lat="47.464794" lon="7.834565">
        <ele>388.830614</ele>
        <time>2021-11-07T11:10:03.026Z</time>
      </trkpt>
      <trkpt lat="47.464768" lon="7.834327">
        <ele>388.811140</ele>
        <time>2021-11-07T11:10:05.331Z</time>
      </trkpt>
      <trkpt lat="47.464498" lon="7.833566">
        <ele>388.700351</ele>
        <time>2021-11-07T11:10:13.510Z</time>
      </trkpt>
      <trkpt lat="47.464411" lon="7.833016">
        <ele>388.624340</ele>
        <time>2021-11-07T11:10:18.962Z</time>
      </trkpt>
      <trkpt lat="47.464417" lon="7.832774">
        <ele>388.591752</ele>
        <time>2021-11-07T11:10:21.150Z</time>
      </trkpt>
      <trkpt lat="47.464397" lon="7.832586">
        <ele>388.566142</ele>
        <time>2021-11-07T11:10:23.201Z</time>
      </trkpt>
      <trkpt lat="47.464241" lon="7.831019">
        <ele>388.765964</ele>
        <time>2021-11-07T11:10:37.637Z</time>
      </trkpt>
      <trkpt lat="47.464528" lon="7.829016">
        <ele>389.671253</ele>
        <time>2021-11-07T11:11:04.310Z</time>
      </trkpt>
      <trkpt lat="47.464542" lon="7.828898">
        <ele>389.656374</ele>
        <time>2021-11-07T11:11:06.249Z</time>
      </trkpt>
      <trkpt lat="47.464637" lon="7.828262">
        <ele>389.575480</ele>
        <time>2021-11-07T11:11:15.132Z</time>
      </trkpt>
      <trkpt lat="47.464811" lon="7.826880">
        <ele>389.400891</ele>
        <time>2021-11-07T11:11:27.483Z</time>
      </trkpt>
      <trkpt lat="47.464811" lon="7.826774">
        <ele>389.387726</ele>
        <time>2021-11-07T11:11:28.765Z</time>
      </trkpt>
      <trkpt lat="47.464807" lon="7.825786">
        <ele>388.234258</ele>
        <time>2021-11-07T11:11:36.136Z</time>
      </trkpt>
      <trkpt lat="47.464779" lon="7.825573">
        <ele>387.881773</ele>
        <time>2021-11-07T11:11:37.855Z</time>
      </trkpt>
      <trkpt lat="47.464699" lon="7.825356">
        <ele>387.480263</ele>
        <time>2021-11-07T11:11:39.481Z</time>
      </trkpt>
      <trkpt lat="47.464628" lon="7.825179">
        <ele>387.145934</ele>
        <time>2021-11-07T11:11:41.055Z</time>
      </trkpt>
      <trkpt lat="47.464594" lon="7.824922">
        <ele>386.720535</ele>
        <time>2021-11-07T11:11:42.815Z</time>
      </trkpt>
      <trkpt lat="47.464595" lon="7.823957">
        <ele>385.152949</ele>
        <time>2021-11-07T11:11:49.516Z</time>
      </trkpt>
      <trkpt lat="47.464584" lon="7.823833">
        <ele>385.003412</ele>
        <time>2021-11-07T11:11:50.332Z</time>
      </trkpt>
      <trkpt lat="47.464547" lon="7.823498">
        <ele>384.827794</ele>
        <time>2021-11-07T11:11:52.896Z</time>
      </trkpt>
      <trkpt lat="47.464430" lon="7.822777">
        <ele>384.444171</ele>
        <time>2021-11-07T11:11:58.536Z</time>
      </trkpt>
      <trkpt lat="47.464139" lon="7.822287">
        <ele>384.106731</ele>
        <time>2021-11-07T11:12:04.643Z</time>
      </trkpt>
      <trkpt lat="47.463994" lon="7.821731">
        <ele>383.798407</ele>
        <time>2021-11-07T11:12:11.192Z</time>
      </trkpt>
      <trkpt lat="47.463968" lon="7.821340">
        <ele>383.719706</ele>
        <time>2021-11-07T11:12:15.885Z</time>
      </trkpt>
      <trkpt lat="47.464024" lon="7.820468">
        <ele>384.259653</ele>
        <time>2021-11-07T11:12:27.342Z</time>
      </trkpt>
      <trkpt lat="47.464075" lon="7.820248">
        <ele>384.403019</ele>
        <time>2021-11-07T11:12:30.418Z</time>
      </trkpt>
      <trkpt lat="47.464148" lon="7.820076">
        <ele>384.528207</ele>
        <time>2021-11-07T11:12:33.406Z</time>
      </trkpt>
      <trkpt lat="47.464944" lon="7.818901">
        <ele>385.262841</ele>
        <time>2021-11-07T11:12:53.992Z</time>
      </trkpt>
      <trkpt lat="47.465094" lon="7.818643">
        <ele>385.239462</ele>
        <time>2021-11-07T11:12:58.157Z</time>
      </trkpt>
      <trkpt lat="47.465427" lon="7.818003">
        <ele>385.183977</ele>
        <time>2021-11-07T11:13:05.586Z</time>
      </trkpt>
      <trkpt lat="47.465540" lon="7.817799">
        <ele>385.165858</ele>
        <time>2021-11-07T11:13:08.348Z</time>
      </trkpt>
      <trkpt lat="47.465596" lon="7.817682">
        <ele>385.156009</ele>
        <time>2021-11-07T11:13:09.410Z</time>
      </trkpt>
      <trkpt lat="47.466154" lon="7.816449">
        <ele>384.507911</ele>
        <time>2021-11-07T11:13:22.228Z</time>
      </trkpt>
      <trkpt lat="47.466451" lon="7.815802">
        <ele>383.921966</ele>
        <time>2021-11-07T11:13:28.665Z</time>
      </trkpt>
      <trkpt lat="47.466725" lon="7.815327">
        <ele>383.454132</ele>
        <time>2021-11-07T11:13:33.657Z</time>
      </trkpt>
      <trkpt lat="47.467147" lon="7.814867">
        <ele>383.149277</ele>
        <time>2021-11-07T11:13:39.536Z</time>
      </trkpt>
      <trkpt lat="47.467298" lon="7.814679">
        <ele>383.179466</ele>
        <time>2021-11-07T11:13:41.778Z</time>
      </trkpt>
      <trkpt lat="47.467466" lon="7.814485">
        <ele>383.212067</ele>
        <time>2021-11-07T11:13:44.286Z</time>
      </trkpt>
      <trkpt lat="47.467606" lon="7.814322">
        <ele>383.239319</ele>
        <time>2021-11-07T11:13:46.514Z</time>
      </trkpt>
      <trkpt lat="47.467665" lon="7.814198">
        <ele>383.254998</ele>
        <time>2021-11-07T11:13:48.180Z</time>
      </trkpt>
      <trkpt lat="47.468067" lon="7.813570">
        <ele>383.344430</ele>
        <time>2021-11-07T11:14:01.188Z</time>
      </trkpt>
      <trkpt lat="47.468127" lon="7.813409">
        <ele>383.363440</ele>
        <time>2021-11-07T11:14:05.378Z</time>
      </trkpt>
      <trkpt lat="47.468086" lon="7.813195">
        <ele>383.386439</ele>
        <time>2021-11-07T11:14:08.699Z</time>
      </trkpt>
      <trkpt lat="47.468087" lon="7.813122">
        <ele>383.517393</ele>
        <time>2021-11-07T11:14:09.465Z</time>
      </trkpt>
      <trkpt lat="47.468231" lon="7.813117">
        <ele>384.423944</ele>
        <time>2021-11-07T11:14:13.506Z</time>
      </trkpt>
      <trkpt lat="47.468898" lon="7.813028">
        <ele>388.638926</ele>
        <time>2021-11-07T11:14:38.799Z</time>
      </trkpt>
      <trkpt lat="47.468968" lon="7.813033">
        <ele>389.080003</ele>
        <time>2021-11-07T11:14:42.684Z</time>
      </trkpt>
      <trkpt lat="47.469261" lon="7.813214">
        <ele>391.078403</ele>
        <time>2021-11-07T11:14:56.586Z</time>
      </trkpt>
      <trkpt lat="47.469382" lon="7.813432">
        <ele>392.278473</ele>
        <time>2021-11-07T11:15:04.904Z</time>
      </trkpt>
      <trkpt lat="47.469445" lon="7.813683">
        <ele>393.417584</ele>
        <time>2021-11-07T11:15:14.522Z</time>
      </trkpt>
      <trkpt lat="47.469471" lon="7.813955">
        <ele>394.586315</ele>
        <time>2021-11-07T11:15:23.431Z</time>
      </trkpt>
      <trkpt lat="47.469477" lon="7.814056">
        <ele>395.020258</ele>
        <time>2021-11-07T11:15:28.358Z</time>
      </trkpt>
      <trkpt lat="47.469564" lon="7.814419">
        <ele>396.672645</ele>
        <time>2021-11-07T11:15:38.958Z</time>
      </trkpt>
      <trkpt lat="47.469608" lon="7.814504">
        <ele>397.131969</ele>
        <time>2021-11-07T11:15:44.063Z</time>
      </trkpt>
      <trkpt lat="47.469647" lon="7.814557">
        <ele>397.468086</ele>
        <time>2021-11-07T11:15:46.503Z</time>
      </trkpt>
      <trkpt lat="47.469960" lon="7.814754">
        <ele>399.626969</ele>
        <time>2021-11-07T11:16:02.520Z</time>
      </trkpt>
      <trkpt lat="47.470163" lon="7.814758">
        <ele>400.915492</ele>
        <time>2021-11-07T11:16:08.394Z</time>
      </trkpt>
      <trkpt lat="47.470596" lon="7.814760">
        <ele>403.663687</ele>
        <time>2021-11-07T11:16:24.906Z</time>
      </trkpt>
      <trkpt lat="47.470838" lon="7.814669">
        <ele>405.248465</ele>
        <time>2021-11-07T11:16:33.558Z</time>
      </trkpt>
      <trkpt lat="47.470969" lon="7.814299">
        <ele>406.898931</ele>
        <time>2021-11-07T11:16:43.159Z</time>
      </trkpt>
      <trkpt lat="47.470938" lon="7.813871">
        <ele>408.459658</ele>
        <time>2021-11-07T11:16:51.261Z</time>
      </trkpt>
      <trkpt lat="47.470607" lon="7.813259">
        <ele>411.301521</ele>
        <time>2021-11-07T11:17:06.691Z</time>
      </trkpt>
      <trkpt lat="47.470614" lon="7.813052">
        <ele>412.053006</ele>
        <time>2021-11-07T11:17:12.063Z</time>
      </trkpt>
      <trkpt lat="47.470744" lon="7.812887">
        <ele>412.971784</ele>
        <time>2021-11-07T11:17:17.114Z</time>
      </trkpt>
      <trkpt lat="47.470794" lon="7.812878">
        <ele>413.241957</ele>
        <time>2021-11-07T11:17:19.120Z</time>
      </trkpt>
      <trkpt lat="47.470835" lon="7.812891">
        <ele>413.466872</ele>
        <time>2021-11-07T11:17:21.875Z</time>
      </trkpt>
      <trkpt lat="47.470923" lon="7.812993">
        <ele>414.066523</ele>
        <time>2021-11-07T11:17:25.424Z</time>
      </trkpt>
      <trkpt lat="47.471093" lon="7.813407">
        <ele>415.869168</ele>
        <time>2021-11-07T11:17:38.318Z</time>
      </trkpt>
      <trkpt lat="47.472320" lon="7.814860">
        <ele>432.385936</ele>
        <time>2021-11-07T11:19:10.039Z</time>
      </trkpt>
      <trkpt lat="47.472505" lon="7.815033">
        <ele>434.687751</ele>
        <time>2021-11-07T11:19:23.469Z</time>
      </trkpt>
      <trkpt lat="47.472623" lon="7.815140">
        <ele>436.423450</ele>
        <time>2021-11-07T11:19:32.963Z</time>
      </trkpt>
      <trkpt lat="47.473230" lon="7.815705">
        <ele>445.417212</ele>
        <time>2021-11-07T11:20:19.093Z</time>
      </trkpt>
      <trkpt lat="47.473743" lon="7.816298">
        <ele>453.581711</ele>
        <time>2021-11-07T11:21:06.969Z</time>
      </trkpt>
      <trkpt lat="47.473783" lon="7.816371">
        <ele>454.378308</ele>
        <time>2021-11-07T11:21:11.235Z</time>
      </trkpt>
      <trkpt lat="47.473926" lon="7.816632">
        <ele>457.226305</ele>
        <time>2021-11-07T11:21:25.892Z</time>
      </trkpt>
      <trkpt lat="47.474182" lon="7.817417">
        <ele>462.724148</ele>
        <time>2021-11-07T11:21:54.557Z</time>
      </trkpt>
      <trkpt lat="47.474210" lon="7.817475">
        <ele>463.173585</ele>
        <time>2021-11-07T11:21:59.559Z</time>
      </trkpt>
      <trkpt lat="47.474233" lon="7.817507">
        <ele>463.468130</ele>
        <time>2021-11-07T11:22:01.887Z</time>
      </trkpt>
      <trkpt lat="47.474389" lon="7.817613">
        <ele>465.069621</ele>
        <time>2021-11-07T11:22:08.668Z</time>
      </trkpt>
      <trkpt lat="47.474555" lon="7.817587">
        <ele>466.626904</ele>
        <time>2021-11-07T11:22:18.121Z</time>
      </trkpt>
      <trkpt lat="47.474613" lon="7.817546">
        <ele>467.226583</ele>
        <time>2021-11-07T11:22:21.775Z</time>
      </trkpt>
      <trkpt lat="47.474641" lon="7.817509">
        <ele>467.576821</ele>
        <time>2021-11-07T11:22:22.517Z</time>
      </trkpt>
      <trkpt lat="47.474739" lon="7.817281">
        <ele>469.280588</ele>
        <time>2021-11-07T11:22:29.101Z</time>
      </trkpt>
      <trkpt lat="47.474739" lon="7.816928">
        <ele>471.506490</ele>
        <time>2021-11-07T11:22:40.943Z</time>
      </trkpt>
      <trkpt lat="47.474616" lon="7.816226">
        <ele>476.328237</ele>
        <time>2021-11-07T11:23:05.838Z</time>
      </trkpt>
      <trkpt lat="47.474375" lon="7.815394">
        <ele>482.723441</ele>
        <time>2021-11-07T11:23:39.695Z</time>
      </trkpt>
      <trkpt lat="47.474430" lon="7.815154">
        <ele>484.513877</ele>
        <time>2021-11-07T11:23:49.479Z</time>
      </trkpt>
      <trkpt lat="47.474584" lon="7.814993">
        <ele>486.484918</ele>
        <time>2021-11-07T11:23:59.559Z</time>
      </trkpt>
      <trkpt lat="47.474804" lon="7.814845">
        <ele>489.011058</ele>
        <time>2021-11-07T11:24:15.562Z</time>
      </trkpt>
      <trkpt lat="47.474961" lon="7.814741">
        <ele>490.809101</ele>
        <time>2021-11-07T11:24:25.369Z</time>
      </trkpt>
      <trkpt lat="47.475210" lon="7.814595">
        <ele>493.667015</ele>
        <time>2021-11-07T11:24:42.381Z</time>
      </trkpt>
      <trkpt lat="47.475276" lon="7.814567">
        <ele>494.437279</ele>
        <time>2021-11-07T11:24:46.394Z</time>
      </trkpt>
      <trkpt lat="47.475471" lon="7.814482">
        <ele>496.717867</ele>
        <time>2021-11-07T11:24:59.558Z</time>
      </trkpt>
      <trkpt lat="47.475705" lon="7.814474">
        <ele>499.343707</ele>
        <time>2021-11-07T11:25:13.369Z</time>
      </trkpt>
      <trkpt lat="47.476077" lon="7.814575">
        <ele>503.586694</ele>
        <time>2021-11-07T11:25:37.921Z</time>
      </trkpt>
      <trkpt lat="47.476150" lon="7.814569">
        <ele>504.406911</ele>
        <time>2021-11-07T11:25:44.247Z</time>
      </trkpt>
      <trkpt lat="47.476204" lon="7.814552">
        <ele>505.026275</ele>
        <time>2021-11-07T11:25:47.565Z</time>
      </trkpt>
      <trkpt lat="47.476334" lon="7.814450">
        <ele>506.677076</ele>
        <time>2021-11-07T11:25:56.881Z</time>
      </trkpt>
      <trkpt lat="47.476534" lon="7.814226">
        <ele>509.491164</ele>
        <time>2021-11-07T11:26:11.293Z</time>
      </trkpt>
      <trkpt lat="47.476563" lon="7.814189">
        <ele>509.920763</ele>
        <time>2021-11-07T11:26:13.198Z</time>
      </trkpt>
      <trkpt lat="47.476884" lon="7.813858">
        <ele>513.959928</ele>
        <time>2021-11-07T11:26:32.551Z</time>
      </trkpt>
      <trkpt lat="47.476980" lon="7.813791">
        <ele>514.834342</ele>
        <time>2021-11-07T11:26:37.988Z</time>
      </trkpt>
      <trkpt lat="47.477155" lon="7.813696">
        <ele>516.369958</ele>
        <time>2021-11-07T11:26:46.319Z</time>
      </trkpt>
      <trkpt lat="47.477516" lon="7.813359">
        <ele>519.886327</ele>
        <time>2021-11-07T11:27:05.538Z</time>
      </trkpt>
      <trkpt lat="47.477546" lon="7.813318">
        <ele>520.222765</ele>
        <time>2021-11-07T11:27:08.872Z</time>
      </trkpt>
      <trkpt lat="47.477609" lon="7.813223">
        <ele>520.963801</ele>
        <time>2021-11-07T11:27:12.549Z</time>
      </trkpt>
      <trkpt lat="47.478172" lon="7.812240">
        <ele>528.255993</ele>
        <time>2021-11-07T11:27:51.778Z</time>
      </trkpt>
      <trkpt lat="47.478216" lon="7.812137">
        <ele>529.178196</ele>
        <time>2021-11-07T11:27:55.620Z</time>
      </trkpt>
      <trkpt lat="47.478245" lon="7.812069">
        <ele>529.786738</ele>
        <time>2021-11-07T11:28:00.253Z</time>
      </trkpt>
      <trkpt lat="47.478262" lon="7.811831">
        <ele>531.598049</ele>
        <time>2021-11-07T11:28:06.787Z</time>
      </trkpt>
      <trkpt lat="47.478204" lon="7.811401">
        <ele>534.916640</ele>
        <time>2021-11-07T11:28:22.551Z</time>
      </trkpt>
      <trkpt lat="47.478231" lon="7.811139">
        <ele>536.922481</ele>
        <time>2021-11-07T11:28:30.676Z</time>
      </trkpt>
      <trkpt lat="47.478335" lon="7.810955">
        <ele>538.737852</ele>
        <time>2021-11-07T11:28:40.467Z</time>
      </trkpt>
      <trkpt lat="47.478566" lon="7.810790">
        <ele>541.610253</ele>
        <time>2021-11-07T11:28:58.914Z</time>
      </trkpt>
      <trkpt lat="47.478809" lon="7.810763">
        <ele>544.339033</ele>
        <time>2021-11-07T11:29:14.569Z</time>
      </trkpt>
      <trkpt lat="47.478943" lon="7.810849">
        <ele>545.974650</ele>
        <time>2021-11-07T11:29:27.668Z</time>
      </trkpt>
      <trkpt lat="47.479473" lon="7.811584">
        <ele>554.675344</ele>
        <time>2021-11-07T11:30:17.260Z</time>
      </trkpt>
      <trkpt lat="47.479687" lon="7.811839">
        <ele>558.035168</ele>
        <time>2021-11-07T11:30:34.325Z</time>
      </trkpt>
      <trkpt lat="47.479735" lon="7.811893">
        <ele>558.772492</ele>
        <time>2021-11-07T11:30:40.095Z</time>
      </trkpt>
      <trkpt lat="47.480713" lon="7.812994">
        <ele>572.371593</ele>
        <time>2021-11-07T11:31:53.246Z</time>
      </trkpt>
      <trkpt lat="47.480872" lon="7.813093">
        <ele>573.699932</ele>
        <time>2021-11-07T11:32:03.144Z</time>
      </trkpt>
      <trkpt lat="47.481456" lon="7.813058">
        <ele>578.200615</ele>
        <time>2021-11-07T11:32:26.450Z</time>
      </trkpt>
      <trkpt lat="47.481920" lon="7.813196">
        <ele>581.845032</ele>
        <time>2021-11-07T11:32:43.458Z</time>
      </trkpt>
      <trkpt lat="47.482097" lon="7.813263">
        <ele>583.251883</ele>
        <time>2021-11-07T11:32:50.024Z</time>
      </trkpt>
      <trkpt lat="47.482420" lon="7.813239">
        <ele>586.017886</ele>
        <time>2021-11-07T11:33:04.355Z</time>
      </trkpt>
      <trkpt lat="47.482949" lon="7.813114">
        <ele>590.726571</ele>
        <time>2021-11-07T11:33:31.534Z</time>
      </trkpt>
      <trkpt lat="47.483220" lon="7.813099">
        <ele>593.110255</ele>
        <time>2021-11-07T11:33:47.408Z</time>
      </trkpt>
      <trkpt lat="47.483493" lon="7.813178">
        <ele>595.555308</ele>
        <time>2021-11-07T11:34:00.840Z</time>
      </trkpt>
      <trkpt lat="47.483708" lon="7.813293">
        <ele>597.564776</ele>
        <time>2021-11-07T11:34:13.859Z</time>
      </trkpt>
      <trkpt lat="47.483804" lon="7.813389">
        <ele>598.583210</ele>
        <time>2021-11-07T11:34:19.439Z</time>
      </trkpt>
      <trkpt lat="47.483867" lon="7.813452">
        <ele>599.251557</ele>
        <time>2021-11-07T11:34:26.296Z</time>
      </trkpt>
      <trkpt lat="47.484375" lon="7.813958">
        <ele>603.459489</ele>
        <time>2021-11-07T11:34:53.624Z</time>
      </trkpt>
      <trkpt lat="47.484474" lon="7.814023">
        <ele>604.189205</ele>
        <time>2021-11-07T11:35:01.969Z</time>
      </trkpt>
      <trkpt lat="47.484558" lon="7.814061">
        <ele>604.781006</ele>
        <time>2021-11-07T11:35:07.202Z</time>
      </trkpt>
      <trkpt lat="47.484689" lon="7.814083">
        <ele>605.669277</ele>
        <time>2021-11-07T11:35:14.382Z</time>
      </trkpt>
      <trkpt lat="47.484732" lon="7.814081">
        <ele>605.959130</ele>
        <time>2021-11-07T11:35:17.259Z</time>
      </trkpt>
      <trkpt lat="47.484810" lon="7.814067">
        <ele>606.488502</ele>
        <time>2021-11-07T11:35:23.272Z</time>
      </trkpt>
      <trkpt lat="47.485144" lon="7.813866">
        <ele>608.917780</ele>
        <time>2021-11-07T11:35:39.396Z</time>
      </trkpt>
      <trkpt lat="47.485925" lon="7.813196">
        <ele>611.184214</ele>
        <time>2021-11-07T11:35:59.614Z</time>
      </trkpt>
      <trkpt lat="47.486531" lon="7.812839">
        <ele>610.463898</ele>
        <time>2021-11-07T11:36:07.002Z</time>
      </trkpt>
      <trkpt lat="47.486782" lon="7.812718">
        <ele>610.172370</ele>
        <time>2021-11-07T11:36:09.728Z</time>
      </trkpt>
      <trkpt lat="47.488525" lon="7.812197">
        <ele>604.773695</ele>
        <time>2021-11-07T11:36:27.265Z</time>
      </trkpt>
      <trkpt lat="47.488654" lon="7.812154">
        <ele>604.299099</ele>
        <time>2021-11-07T11:36:28.536Z</time>
      </trkpt>
      <trkpt lat="47.489734" lon="7.811930">
        <ele>599.471682</ele>
        <time>2021-11-07T11:36:39.748Z</time>
      </trkpt>
      <trkpt lat="47.490230" lon="7.811766">
        <ele>597.072093</ele>
        <time>2021-11-07T11:36:44.491Z</time>
      </trkpt>
      <trkpt lat="47.490608" lon="7.811558">
        <ele>595.167999</ele>
        <time>2021-11-07T11:36:48.233Z</time>
      </trkpt>
      <trkpt lat="47.490921" lon="7.811332">
        <ele>592.254107</ele>
        <time>2021-11-07T11:36:51.367Z</time>
      </trkpt>
      <trkpt lat="47.491099" lon="7.811167">
        <ele>590.266260</ele>
        <time>2021-11-07T11:36:53.212Z</time>
      </trkpt>
      <trkpt lat="47.491168" lon="7.811103">
        <ele>589.495557</ele>
        <time>2021-11-07T11:36:53.945Z</time>
      </trkpt>
      <trkpt lat="47.491210" lon="7.811067">
        <ele>589.036195</ele>
        <time>2021-11-07T11:36:54.347Z</time>
      </trkpt>
      <trkpt lat="47.491305" lon="7.811022">
        <ele>588.092145</ele>
        <time>2021-11-07T11:36:55.183Z</time>
      </trkpt>
      <trkpt lat="47.491356" lon="7.811021">
        <ele>587.609418</ele>
        <time>2021-11-07T11:36:55.648Z</time>
      </trkpt>
      <trkpt lat="47.491417" lon="7.811033">
        <ele>587.027011</ele>
        <time>2021-11-07T11:36:56.207Z</time>
      </trkpt>
      <trkpt lat="47.491536" lon="7.811112">
        <ele>585.792625</ele>
        <time>2021-11-07T11:36:57.338Z</time>
      </trkpt>
      <trkpt lat="47.491701" lon="7.811206">
        <ele>584.119293</ele>
        <time>2021-11-07T11:36:58.828Z</time>
      </trkpt>
      <trkpt lat="47.492165" lon="7.811273">
        <ele>579.706958</ele>
        <time>2021-11-07T11:37:02.843Z</time>
      </trkpt>
      <trkpt lat="47.492224" lon="7.811327">
        <ele>579.050404</ele>
        <time>2021-11-07T11:37:03.444Z</time>
      </trkpt>
      <trkpt lat="47.492257" lon="7.811384">
        <ele>578.570385</ele>
        <time>2021-11-07T11:37:03.862Z</time>
      </trkpt>
      <trkpt lat="47.492257" lon="7.811384">
        <ele>578.570385</ele>
        <time>2021-11-07T11:37:03.883Z</time>
      </trkpt>
      <trkpt lat="47.492273" lon="7.811452">
        <ele>578.109914</ele>
        <time>2021-11-07T11:37:04.287Z</time>
      </trkpt>
      <trkpt lat="47.492264" lon="7.811614">
        <ele>576.969069</ele>
        <time>2021-11-07T11:37:05.277Z</time>
      </trkpt>
      <trkpt lat="47.492176" lon="7.811763">
        <ele>575.518688</ele>
        <time>2021-11-07T11:37:06.445Z</time>
      </trkpt>
      <trkpt lat="47.492008" lon="7.811905">
        <ele>573.420191</ele>
        <time>2021-11-07T11:37:08.065Z</time>
      </trkpt>
      <trkpt lat="47.491595" lon="7.812210">
        <ele>568.413745</ele>
        <time>2021-11-07T11:37:12.055Z</time>
      </trkpt>
      <trkpt lat="47.491212" lon="7.812513">
        <ele>563.703146</ele>
        <time>2021-11-07T11:37:15.756Z</time>
      </trkpt>
      <trkpt lat="47.491001" lon="7.812847">
        <ele>560.351971</ele>
        <time>2021-11-07T11:37:18.364Z</time>
      </trkpt>
      <trkpt lat="47.490928" lon="7.813010">
        <ele>558.918733</ele>
        <time>2021-11-07T11:37:19.463Z</time>
      </trkpt>
      <trkpt lat="47.490609" lon="7.813824">
        <ele>552.136751</ele>
        <time>2021-11-07T11:37:25.017Z</time>
      </trkpt>
      <trkpt lat="47.490583" lon="7.813886">
        <ele>551.611787</ele>
        <time>2021-11-07T11:37:25.413Z</time>
      </trkpt>
      <trkpt lat="47.490141" lon="7.814910">
        <ele>542.870021</ele>
        <time>2021-11-07T11:37:32.437Z</time>
      </trkpt>
      <trkpt lat="47.489951" lon="7.815143">
        <ele>540.242824</ele>
        <time>2021-11-07T11:37:34.533Z</time>
      </trkpt>
      <trkpt lat="47.489256" lon="7.815700">
        <ele>532.891888</ele>
        <time>2021-11-07T11:37:41.364Z</time>
      </trkpt>
      <trkpt lat="47.489000" lon="7.816098">
        <ele>529.516718</ele>
        <time>2021-11-07T11:37:44.627Z</time>
      </trkpt>
      <trkpt lat="47.488831" lon="7.816489">
        <ele>526.665719</ele>
        <time>2021-11-07T11:37:47.336Z</time>
      </trkpt>
      <trkpt lat="47.488720" lon="7.816914">
        <ele>523.866950</ele>
        <time>2021-11-07T11:37:50.014Z</time>
      </trkpt>
      <trkpt lat="47.488531" lon="7.818236">
        <ele>518.159538</ele>
        <time>2021-11-07T11:37:58.185Z</time>
      </trkpt>
      <trkpt lat="47.488476" lon="7.818598">
        <ele>516.702480</ele>
        <time>2021-11-07T11:38:00.504Z</time>
      </trkpt>
      <trkpt lat="47.488471" lon="7.818631">
        <ele>516.569672</ele>
        <time>2021-11-07T11:38:00.706Z</time>
      </trkpt>
      <trkpt lat="47.488351" lon="7.819266">
        <ele>513.980356</ele>
        <time>2021-11-07T11:38:05.015Z</time>
      </trkpt>
      <trkpt lat="47.488069" lon="7.819771">
        <ele>511.517215</ele>
        <time>2021-11-07T11:38:09.358Z</time>
      </trkpt>
      <trkpt lat="47.488038" lon="7.819855">
        <ele>511.187360</ele>
        <time>2021-11-07T11:38:09.999Z</time>
      </trkpt>
      <trkpt lat="47.488034" lon="7.819897">
        <ele>511.041182</ele>
        <time>2021-11-07T11:38:10.479Z</time>
      </trkpt>
      <trkpt lat="47.488272" lon="7.820957">
        <ele>507.191655</ele>
        <time>2021-11-07T11:38:18.246Z</time>
      </trkpt>
      <trkpt lat="47.488407" lon="7.821368">
        <ele>505.616730</ele>
        <time>2021-11-07T11:38:21.063Z</time>
      </trkpt>
      <trkpt lat="47.488631" lon="7.821707">
        <ele>503.982691</ele>
        <time>2021-11-07T11:38:23.942Z</time>
      </trkpt>
      <trkpt lat="47.489169" lon="7.822169">
        <ele>498.088186</ele>
        <time>2021-11-07T11:38:29.419Z</time>
      </trkpt>
      <trkpt lat="47.489263" lon="7.822249">
        <ele>496.885930</ele>
        <time>2021-11-07T11:38:30.338Z</time>
      </trkpt>
      <trkpt lat="47.489383" lon="7.822351">
        <ele>495.351613</ele>
        <time>2021-11-07T11:38:31.557Z</time>
      </trkpt>
      <trkpt lat="47.489514" lon="7.822403">
        <ele>493.847841</ele>
        <time>2021-11-07T11:38:32.693Z</time>
      </trkpt>
      <trkpt lat="47.489808" lon="7.822489">
        <ele>490.525118</ele>
        <time>2021-11-07T11:38:35.240Z</time>
      </trkpt>
      <trkpt lat="47.490467" lon="7.822385">
        <ele>483.175985</ele>
        <time>2021-11-07T11:38:40.815Z</time>
      </trkpt>
      <trkpt lat="47.490703" lon="7.822453">
        <ele>480.189501</ele>
        <time>2021-11-07T11:38:42.812Z</time>
      </trkpt>
      <trkpt lat="47.491130" lon="7.822694">
        <ele>474.512959</ele>
        <time>2021-11-07T11:38:46.613Z</time>
      </trkpt>
      <trkpt lat="47.492112" lon="7.823401">
        <ele>460.948409</ele>
        <time>2021-11-07T11:38:55.887Z</time>
      </trkpt>
      <trkpt lat="47.492353" lon="7.823575">
        <ele>458.573065</ele>
        <time>2021-11-07T11:38:58.162Z</time>
      </trkpt>
      <trkpt lat="47.492649" lon="7.823801">
        <ele>455.660456</ele>
        <time>2021-11-07T11:39:01.031Z</time>
      </trkpt>
      <trkpt lat="47.492910" lon="7.823929">
        <ele>453.256026</ele>
        <time>2021-11-07T11:39:03.424Z</time>
      </trkpt>
      <trkpt lat="47.493041" lon="7.823859">
        <ele>452.038082</ele>
        <time>2021-11-07T11:39:04.657Z</time>
      </trkpt>
      <trkpt lat="47.493084" lon="7.823708">
        <ele>451.069874</ele>
        <time>2021-11-07T11:39:05.675Z</time>
      </trkpt>
      <trkpt lat="47.493025" lon="7.823293">
        <ele>448.564089</ele>
        <time>2021-11-07T11:39:08.187Z</time>
      </trkpt>
      <trkpt lat="47.493047" lon="7.823163">
        <ele>447.772237</ele>
        <time>2021-11-07T11:39:09.016Z</time>
      </trkpt>
      <trkpt lat="47.493066" lon="7.823134">
        <ele>447.533559</ele>
        <time>2021-11-07T11:39:09.265Z</time>
      </trkpt>
      <trkpt lat="47.493081" lon="7.823112">
        <ele>447.348888</ele>
        <time>2021-11-07T11:39:09.436Z</time>
      </trkpt>
      <trkpt lat="47.493228" lon="7.823059">
        <ele>446.025813</ele>
        <time>2021-11-07T11:39:10.776Z</time>
      </trkpt>
      <trkpt lat="47.493316" lon="7.823106">
        <ele>445.207699</ele>
        <time>2021-11-07T11:39:11.691Z</time>
      </trkpt>
      <trkpt lat="47.493409" lon="7.823156">
        <ele>444.755892</ele>
        <time>2021-11-07T11:39:12.633Z</time>
      </trkpt>
      <trkpt lat="47.493592" lon="7.823360">
        <ele>443.822094</ele>
        <time>2021-11-07T11:39:14.736Z</time>
      </trkpt>
      <trkpt lat="47.493696" lon="7.823573">
        <ele>443.098369</ele>
        <time>2021-11-07T11:39:16.367Z</time>
      </trkpt>
      <trkpt lat="47.493699" lon="7.823782">
        <ele>442.522662</ele>
        <time>2021-11-07T11:39:17.750Z</time>
      </trkpt>
      <trkpt lat="47.493509" lon="7.824560">
        <ele>440.244418</ele>
        <time>2021-11-07T11:39:23.048Z</time>
      </trkpt>
      <trkpt lat="47.493537" lon="7.824674">
        <ele>439.910366</ele>
        <time>2021-11-07T11:39:23.829Z</time>
      </trkpt>
      <trkpt lat="47.493647" lon="7.824596">
        <ele>439.413216</ele>
        <time>2021-11-07T11:39:25.090Z</time>
      </trkpt>
      <trkpt lat="47.493875" lon="7.824391">
        <ele>438.325865</ele>
        <time>2021-11-07T11:39:28.264Z</time>
      </trkpt>
      <trkpt lat="47.493969" lon="7.824265">
        <ele>437.808952</ele>
        <time>2021-11-07T11:39:29.694Z</time>
      </trkpt>
      <trkpt lat="47.494072" lon="7.824126">
        <ele>437.816000</ele>
        <time>2021-11-07T11:39:32.109Z</time>
      </trkpt>
      <trkpt lat="47.494316" lon="7.823809">
        <ele>437.889420</ele>
        <time>2021-11-07T11:39:36.973Z</time>
      </trkpt>
      <trkpt lat="47.494522" lon="7.823673">
        <ele>437.940428</ele>
        <time>2021-11-07T11:39:39.829Z</time>
      </trkpt>
      <trkpt lat="47.494652" lon="7.823597">
        <ele>437.972035</ele>
        <time>2021-11-07T11:39:43.263Z</time>
      </trkpt>
      <trkpt lat="47.494910" lon="7.823403">
        <ele>438.037476</ele>
        <time>2021-11-07T11:39:47.738Z</time>
      </trkpt>
      <trkpt lat="47.494984" lon="7.823371">
        <ele>438.054909</ele>
        <time>2021-11-07T11:39:49.818Z</time>
      </trkpt>
      <trkpt lat="47.495379" lon="7.823313">
        <ele>438.144671</ele>
        <time>2021-11-07T11:39:56.856Z</time>
      </trkpt>
      <trkpt lat="47.495577" lon="7.823253">
        <ele>438.190374</ele>
        <time>2021-11-07T11:40:00.250Z</time>
      </trkpt>
      <trkpt lat="47.495873" lon="7.823177">
        <ele>437.908566</ele>
        <time>2021-11-07T11:40:05.347Z</time>
      </trkpt>
      <trkpt lat="47.496106" lon="7.823142">
        <ele>437.680069</ele>
        <time>2021-11-07T11:40:09.651Z</time>
      </trkpt>
      <trkpt lat="47.496254" lon="7.823140">
        <ele>437.535665</ele>
        <time>2021-11-07T11:40:12.262Z</time>
      </trkpt>
      <trkpt lat="47.496320" lon="7.823139">
        <ele>437.471269</ele>
        <time>2021-11-07T11:40:13.175Z</time>
      </trkpt>
      <trkpt lat="47.496375" lon="7.823140">
        <ele>437.417603</ele>
        <time>2021-11-07T11:40:14.074Z</time>
      </trkpt>
      <trkpt lat="47.496704" lon="7.823163">
        <ele>437.096253</ele>
        <time>2021-11-07T11:40:18.347Z</time>
      </trkpt>
      <trkpt lat="47.496927" lon="7.823151">
        <ele>436.878537</ele>
        <time>2021-11-07T11:40:20.834Z</time>
      </trkpt>
      <trkpt lat="47.497246" lon="7.823247">
        <ele>436.560934</ele>
        <time>2021-11-07T11:40:24.210Z</time>
      </trkpt>
      <trkpt lat="47.498162" lon="7.823883">
        <ele>432.241715</ele>
        <time>2021-11-07T11:40:34.234Z</time>
      </trkpt>
      <trkpt lat="47.498343" lon="7.824061">
        <ele>431.211890</ele>
        <time>2021-11-07T11:40:36.292Z</time>
      </trkpt>
      <trkpt lat="47.498586" lon="7.824227">
        <ele>429.943584</ele>
        <time>2021-11-07T11:40:38.850Z</time>
      </trkpt>
      <trkpt lat="47.499488" lon="7.824926">
        <ele>423.179074</ele>
        <time>2021-11-07T11:40:47.978Z</time>
      </trkpt>
      <trkpt lat="47.499602" lon="7.824975">
        <ele>422.226174</ele>
        <time>2021-11-07T11:40:49.018Z</time>
      </trkpt>
      <trkpt lat="47.499714" lon="7.825011">
        <ele>421.306176</ele>
        <time>2021-11-07T11:40:50.002Z</time>
      </trkpt>
      <trkpt lat="47.500062" lon="7.825087">
        <ele>418.482478</ele>
        <time>2021-11-07T11:40:53.097Z</time>
      </trkpt>
      <trkpt lat="47.500269" lon="7.825147">
        <ele>416.789293</ele>
        <time>2021-11-07T11:40:54.989Z</time>
      </trkpt>
      <trkpt lat="47.500385" lon="7.825189">
        <ele>415.830689</ele>
        <time>2021-11-07T11:40:56.011Z</time>
      </trkpt>
      <trkpt lat="47.501557" lon="7.825705">
        <ele>407.097644</ele>
        <time>2021-11-07T11:41:06.720Z</time>
      </trkpt>
      <trkpt lat="47.502825" lon="7.825809">
        <ele>400.063690</ele>
        <time>2021-11-07T11:41:18.629Z</time>
      </trkpt>
      <trkpt lat="47.503143" lon="7.825808">
        <ele>399.215761</ele>
        <time>2021-11-07T11:41:21.858Z</time>
      </trkpt>
      <trkpt lat="47.503195" lon="7.825807">
        <ele>399.077094</ele>
        <time>2021-11-07T11:41:22.427Z</time>
      </trkpt>
      <trkpt lat="47.503225" lon="7.825809">
        <ele>398.997020</ele>
        <time>2021-11-07T11:41:22.759Z</time>
      </trkpt>
      <trkpt lat="47.503509" lon="7.825771">
        <ele>398.236664</ele>
        <time>2021-11-07T11:41:25.779Z</time>
      </trkpt>
      <trkpt lat="47.503860" lon="7.825735">
        <ele>397.298500</ele>
        <time>2021-11-07T11:41:29.711Z</time>
      </trkpt>
      <trkpt lat="47.504813" lon="7.825703">
        <ele>396.322598</ele>
        <time>2021-11-07T11:41:42.320Z</time>
      </trkpt>
      <trkpt lat="47.506147" lon="7.825028">
        <ele>396.117347</ele>
        <time>2021-11-07T11:42:05.415Z</time>
      </trkpt>
      <trkpt lat="47.507017" lon="7.824678">
        <ele>395.329991</ele>
        <time>2021-11-07T11:42:18.991Z</time>
      </trkpt>
      <trkpt lat="47.507990" lon="7.824326">
        <ele>393.172133</ele>
        <time>2021-11-07T11:42:29.775Z</time>
      </trkpt>
      <trkpt lat="47.508288" lon="7.824180">
        <ele>391.590343</ele>
        <time>2021-11-07T11:42:32.857Z</time>
      </trkpt>
      <trkpt lat="47.509075" lon="7.823456">
        <ele>386.921133</ele>
        <time>2021-11-07T11:42:41.383Z</time>
      </trkpt>
      <trkpt lat="47.509744" lon="7.823275">
        <ele>383.137012</ele>
        <time>2021-11-07T11:42:47.458Z</time>
      </trkpt>
      <trkpt lat="47.510203" lon="7.823212">
        <ele>380.431245</ele>
        <time>2021-11-07T11:42:51.679Z</time>
      </trkpt>
      <trkpt lat="47.510706" lon="7.823221">
        <ele>377.478547</ele>
        <time>2021-11-07T11:42:56.319Z</time>
      </trkpt>
      <trkpt lat="47.511863" lon="7.823271">
        <ele>372.989711</ele>
        <time>2021-11-07T11:43:07.362Z</time>
      </trkpt>
      <trkpt lat="47.512067" lon="7.823229">
        <ele>372.411530</ele>
        <time>2021-11-07T11:43:09.578Z</time>
      </trkpt>
      <trkpt lat="47.512263" lon="7.823167">
        <ele>371.848898</ele>
        <time>2021-11-07T11:43:11.712Z</time>
      </trkpt>
      <trkpt lat="47.512648" lon="7.822935">
        <ele>370.682032</ele>
        <time>2021-11-07T11:43:16.539Z</time>
      </trkpt>
      <trkpt lat="47.513483" lon="7.822231">
        <ele>369.260664</ele>
        <time>2021-11-07T11:43:29.548Z</time>
      </trkpt>
      <trkpt lat="47.514302" lon="7.821660">
        <ele>368.286669</ele>
        <time>2021-11-07T11:43:41.034Z</time>
      </trkpt>
      <trkpt lat="47.514708" lon="7.821376">
        <ele>366.948873</ele>
        <time>2021-11-07T11:43:45.681Z</time>
      </trkpt>
      <trkpt lat="47.514821" lon="7.821292">
        <ele>366.443641</ele>
        <time>2021-11-07T11:43:47.016Z</time>
      </trkpt>
      <trkpt lat="47.515036" lon="7.821090">
        <ele>365.426191</ele>
        <time>2021-11-07T11:43:49.528Z</time>
      </trkpt>
      <trkpt lat="47.515202" lon="7.820909">
        <ele>364.602445</ele>
        <time>2021-11-07T11:43:51.601Z</time>
      </trkpt>
      <trkpt lat="47.515268" lon="7.820836">
        <ele>364.273266</ele>
        <time>2021-11-07T11:43:52.352Z</time>
      </trkpt>
      <trkpt lat="47.515469" lon="7.820644">
        <ele>363.317484</ele>
        <time>2021-11-07T11:43:54.726Z</time>
      </trkpt>
      <trkpt lat="47.515587" lon="7.820532">
        <ele>362.757425</ele>
        <time>2021-11-07T11:43:56.008Z</time>
      </trkpt>
      <trkpt lat="47.516786" lon="7.819655">
        <ele>357.423121</ele>
        <time>2021-11-07T11:44:08.463Z</time>
      </trkpt>
      <trkpt lat="47.517657" lon="7.818442">
        <ele>353.204795</ele>
        <time>2021-11-07T11:44:20.881Z</time>
      </trkpt>
      <trkpt lat="47.518035" lon="7.818005">
        <ele>352.238862</ele>
        <time>2021-11-07T11:44:26.272Z</time>
      </trkpt>
      <trkpt lat="47.518220" lon="7.817823">
        <ele>351.791494</ele>
        <time>2021-11-07T11:44:28.806Z</time>
      </trkpt>
      <trkpt lat="47.518481" lon="7.817598">
        <ele>351.183192</ele>
        <time>2021-11-07T11:44:32.256Z</time>
      </trkpt>
      <trkpt lat="47.518941" lon="7.817228">
        <ele>350.125261</ele>
        <time>2021-11-07T11:44:38.051Z</time>
      </trkpt>
      <trkpt lat="47.519453" lon="7.816861">
        <ele>348.643596</ele>
        <time>2021-11-07T11:44:44.243Z</time>
      </trkpt>
      <trkpt lat="47.519807" lon="7.816661">
        <ele>347.656683</ele>
        <time>2021-11-07T11:44:48.179Z</time>
      </trkpt>
      <trkpt lat="47.519959" lon="7.816575">
        <ele>347.232846</ele>
        <time>2021-11-07T11:44:49.912Z</time>
      </trkpt>
      <trkpt lat="47.520002" lon="7.816556">
        <ele>347.115962</ele>
        <time>2021-11-07T11:44:50.356Z</time>
      </trkpt>
      <trkpt lat="47.520578" lon="7.816306">
        <ele>345.552514</ele>
        <time>2021-11-07T11:44:56.482Z</time>
      </trkpt>
      <trkpt lat="47.521028" lon="7.816163">
        <ele>344.282385</ele>
        <time>2021-11-07T11:45:01.208Z</time>
      </trkpt>
      <trkpt lat="47.521087" lon="7.816144">
        <ele>344.114938</ele>
        <time>2021-11-07T11:45:01.768Z</time>
      </trkpt>
      <trkpt lat="47.521199" lon="7.816108">
        <ele>343.797100</ele>
        <time>2021-11-07T11:45:02.971Z</time>
      </trkpt>
      <trkpt lat="47.521383" lon="7.816075">
        <ele>343.283091</ele>
        <time>2021-11-07T11:45:04.937Z</time>
      </trkpt>
      <trkpt lat="47.521699" lon="7.816019">
        <ele>342.400487</ele>
        <time>2021-11-07T11:45:08.225Z</time>
      </trkpt>
      <trkpt lat="47.521870" lon="7.815989">
        <ele>341.922943</ele>
        <time>2021-11-07T11:45:09.980Z</time>
      </trkpt>
      <trkpt lat="47.522090" lon="7.815952">
        <ele>341.308903</ele>
        <time>2021-11-07T11:45:12.469Z</time>
      </trkpt>
      <trkpt lat="47.523608" lon="7.815695">
        <ele>337.293386</ele>
        <time>2021-11-07T11:45:28.534Z</time>
      </trkpt>
      <trkpt lat="47.523730" lon="7.815653">
        <ele>336.968704</ele>
        <time>2021-11-07T11:45:29.845Z</time>
      </trkpt>
      <trkpt lat="47.523757" lon="7.815629">
        <ele>336.887074</ele>
        <time>2021-11-07T11:45:30.128Z</time>
      </trkpt>
      <trkpt lat="47.523836" lon="7.814923">
        <ele>335.653810</ele>
        <time>2021-11-07T11:45:35.361Z</time>
      </trkpt>
      <trkpt lat="47.523994" lon="7.814691">
        <ele>335.142575</ele>
        <time>2021-11-07T11:45:37.649Z</time>
      </trkpt>
      <trkpt lat="47.524032" lon="7.814643">
        <ele>335.027816</ele>
        <time>2021-11-07T11:45:38.160Z</time>
      </trkpt>
      <trkpt lat="47.524286" lon="7.814362">
        <ele>334.299341</ele>
        <time>2021-11-07T11:45:41.494Z</time>
      </trkpt>
      <trkpt lat="47.524601" lon="7.814100">
        <ele>333.469238</ele>
        <time>2021-11-07T11:45:45.269Z</time>
      </trkpt>
      <trkpt lat="47.524645" lon="7.814069">
        <ele>333.357283</ele>
        <time>2021-11-07T11:45:45.794Z</time>
      </trkpt>
      <trkpt lat="47.524963" lon="7.813836">
        <ele>332.542091</ele>
        <time>2021-11-07T11:45:49.730Z</time>
      </trkpt>
      <trkpt lat="47.524982" lon="7.813822">
        <ele>332.493330</ele>
        <time>2021-11-07T11:45:49.970Z</time>
      </trkpt>
      <trkpt lat="47.525103" lon="7.813754">
        <ele>332.195969</ele>
        <time>2021-11-07T11:45:51.456Z</time>
      </trkpt>
      <trkpt lat="47.525265" lon="7.813766">
        <ele>331.823286</ele>
        <time>2021-11-07T11:45:53.175Z</time>
      </trkpt>
      <trkpt lat="47.525640" lon="7.813941">
        <ele>331.150119</ele>
        <time>2021-11-07T11:45:57.627Z</time>
      </trkpt>
      <trkpt lat="47.525829" lon="7.814027">
        <ele>330.834760</ele>
        <time>2021-11-07T11:45:59.864Z</time>
      </trkpt>
      <trkpt lat="47.525874" lon="7.814072">
        <ele>330.748155</ele>
        <time>2021-11-07T11:46:00.474Z</time>
      </trkpt>
      <trkpt lat="47.526135" lon="7.814494">
        <ele>330.131822</ele>
        <time>2021-11-07T11:46:04.897Z</time>
      </trkpt>
      <trkpt lat="47.526394" lon="7.814809">
        <ele>329.597270</ele>
        <time>2021-11-07T11:46:08.645Z</time>
      </trkpt>
      <trkpt lat="47.526478" lon="7.814853">
        <ele>329.455158</ele>
        <time>2021-11-07T11:46:09.784Z</time>
      </trkpt>
      <trkpt lat="47.526579" lon="7.814859">
        <ele>329.293937</ele>
        <time>2021-11-07T11:46:11.000Z</time>
      </trkpt>
      <trkpt lat="47.526655" lon="7.814822">
        <ele>329.166337</ele>
        <time>2021-11-07T11:46:11.916Z</time>
      </trkpt>
      <trkpt lat="47.526652" lon="7.814787">
        <ele>329.128339</ele>
        <time>2021-11-07T11:46:12.142Z</time>
      </trkpt>
      <trkpt lat="47.526961" lon="7.813898">
        <ele>328.214987</ele>
        <time>2021-11-07T11:46:20.130Z</time>
      </trkpt>
      <trkpt lat="47.526991" lon="7.813710">
        <ele>328.052145</ele>
        <time>2021-11-07T11:46:21.539Z</time>
      </trkpt>
      <trkpt lat="47.526991" lon="7.813710">
        <ele>328.052145</ele>
        <time>2021-11-07T11:46:21.543Z</time>
      </trkpt>
      <trkpt lat="47.526991" lon="7.813710">
        <ele>328.052145</ele>
        <time>2021-11-07T11:46:21.558Z</time>
      </trkpt>
      <trkpt lat="47.526991" lon="7.813710">
        <ele>328.052145</ele>
        <time>2021-11-07T11:46:21.558Z</time>
      </trkpt>
      <trkpt lat="47.527434" lon="7.812836">
        <ele>327.130929</ele>
        <time>2021-11-07T11:46:35.234Z</time>
      </trkpt>
      <trkpt lat="47.527878" lon="7.811962">
        <ele>326.249284</ele>
        <time>2021-11-07T11:46:48.921Z</time>
      </trkpt>
      <trkpt lat="47.528321" lon="7.811087">
        <ele>325.433736</ele>
        <time>2021-11-07T11:47:02.608Z</time>
      </trkpt>
      <trkpt lat="47.528765" lon="7.810213">
        <ele>324.618125</ele>
        <time>2021-11-07T11:47:16.295Z</time>
      </trkpt>
      <trkpt lat="47.529208" lon="7.809338">
        <ele>324.396389</ele>
        <time>2021-11-07T11:47:29.982Z</time>
      </trkpt>
      <trkpt lat="47.529208" lon="7.809338">
        <ele>324.396389</ele>
        <time>2021-11-07T11:47:29.993Z</time>
      </trkpt>
      <trkpt lat="47.529274" lon="7.809267">
        <ele>324.375818</ele>
        <time>2021-11-07T11:47:31.143Z</time>
      </trkpt>
      <trkpt lat="47.529336" lon="7.809212">
        <ele>324.357593</ele>
        <time>2021-11-07T11:47:32.448Z</time>
      </trkpt>
      <trkpt lat="47.529513" lon="7.809105">
        <ele>324.309384</ele>
        <time>2021-11-07T11:47:34.933Z</time>
      </trkpt>
      <trkpt lat="47.529594" lon="7.809061">
        <ele>324.287627</ele>
        <time>2021-11-07T11:47:36.175Z</time>
      </trkpt>
      <trkpt lat="47.529966" lon="7.808858">
        <ele>324.187653</ele>
        <time>2021-11-07T11:47:42.539Z</time>
      </trkpt>
      <trkpt lat="47.530041" lon="7.808819">
        <ele>324.167608</ele>
        <time>2021-11-07T11:47:44.044Z</time>
      </trkpt>
      <trkpt lat="47.530543" lon="7.808552">
        <ele>324.266671</ele>
        <time>2021-11-07T11:47:52.785Z</time>
      </trkpt>
      <trkpt lat="47.530585" lon="7.808529">
        <ele>324.286254</ele>
        <time>2021-11-07T11:47:53.535Z</time>
      </trkpt>
      <trkpt lat="47.530684" lon="7.808469">
        <ele>324.333033</ele>
        <time>2021-11-07T11:47:55.790Z</time>
      </trkpt>
      <trkpt lat="47.531066" lon="7.808197">
        <ele>324.518393</ele>
        <time>2021-11-07T11:48:03.305Z</time>
      </trkpt>
      <trkpt lat="47.531380" lon="7.807943">
        <ele>324.674857</ele>
        <time>2021-11-07T11:48:09.609Z</time>
      </trkpt>
      <trkpt lat="47.531735" lon="7.807655">
        <ele>324.851870</ele>
        <time>2021-11-07T11:48:15.970Z</time>
      </trkpt>
      <trkpt lat="47.532412" lon="7.807037">
        <ele>324.467180</ele>
        <time>2021-11-07T11:48:27.391Z</time>
      </trkpt>
      <trkpt lat="47.532581" lon="7.806843">
        <ele>324.328156</ele>
        <time>2021-11-07T11:48:30.231Z</time>
      </trkpt>
      <trkpt lat="47.532546" lon="7.806703">
        <ele>324.262618</ele>
        <time>2021-11-07T11:48:31.891Z</time>
      </trkpt>
      <trkpt lat="47.533091" lon="7.806305">
        <ele>323.867523</ele>
        <time>2021-11-07T11:48:42.329Z</time>
      </trkpt>
      <trkpt lat="47.533636" lon="7.806058">
        <ele>323.514190</ele>
        <time>2021-11-07T11:48:51.876Z</time>
      </trkpt>
      <trkpt lat="47.533723" lon="7.806018">
        <ele>323.459239</ele>
        <time>2021-11-07T11:48:53.409Z</time>
      </trkpt>
      <trkpt lat="47.534648" lon="7.805785">
        <ele>322.893249</ele>
        <time>2021-11-07T11:49:10.703Z</time>
      </trkpt>
      <trkpt lat="47.534894" lon="7.805725">
        <ele>322.742858</ele>
        <time>2021-11-07T11:49:15.405Z</time>
      </trkpt>
      <trkpt lat="47.535092" lon="7.805671">
        <ele>322.661805</ele>
        <time>2021-11-07T11:49:19.750Z</time>
      </trkpt>
      <trkpt lat="47.535828" lon="7.805308">
        <ele>322.840541</ele>
        <time>2021-11-07T11:49:35.934Z</time>
      </trkpt>
      <trkpt lat="47.536875" lon="7.804558">
        <ele>322.977277</ele>
        <time>2021-11-07T11:50:01.866Z</time>
      </trkpt>
      <trkpt lat="47.537755" lon="7.803639">
        <ele>322.475966</ele>
        <time>2021-11-07T11:50:22.004Z</time>
      </trkpt>
      <trkpt lat="47.538164" lon="7.803170">
        <ele>322.235147</ele>
        <time>2021-11-07T11:50:31.150Z</time>
      </trkpt>
      <trkpt lat="47.538256" lon="7.803059">
        <ele>322.119093</ele>
        <time>2021-11-07T11:50:32.989Z</time>
      </trkpt>
      <trkpt lat="47.540006" lon="7.800680">
        <ele>320.491032</ele>
        <time>2021-11-07T11:51:13.882Z</time>
      </trkpt>
      <trkpt lat="47.540192" lon="7.800458">
        <ele>320.550010</ele>
        <time>2021-11-07T11:51:18.429Z</time>
      </trkpt>
      <trkpt lat="47.540260" lon="7.800353">
        <ele>320.574263</ele>
        <time>2021-11-07T11:51:21.494Z</time>
      </trkpt>
      <trkpt lat="47.540644" lon="7.800163">
        <ele>320.674226</ele>
        <time>2021-11-07T11:51:31.290Z</time>
      </trkpt>
      <trkpt lat="47.540897" lon="7.800171">
        <ele>320.736709</ele>
        <time>2021-11-07T11:51:37.456Z</time>
      </trkpt>
      <trkpt lat="47.541705" lon="7.800028">
        <ele>321.010530</ele>
        <time>2021-11-07T11:51:59.229Z</time>
      </trkpt>
      <trkpt lat="47.542307" lon="7.799830">
        <ele>321.228012</ele>
        <time>2021-11-07T11:52:14.202Z</time>
      </trkpt>
      <trkpt lat="47.542998" lon="7.799859">
        <ele>320.512357</ele>
        <time>2021-11-07T11:52:26.431Z</time>
      </trkpt>
      <trkpt lat="47.544071" lon="7.799629">
        <ele>315.655124</ele>
        <time>2021-11-07T11:52:41.353Z</time>
      </trkpt>
      <trkpt lat="47.544184" lon="7.799620">
        <ele>315.148139</ele>
        <time>2021-11-07T11:52:42.719Z</time>
      </trkpt>
      <trkpt lat="47.544345" lon="7.799570">
        <ele>314.411161</ele>
        <time>2021-11-07T11:52:44.958Z</time>
      </trkpt>
      <trkpt lat="47.544568" lon="7.799371">
        <ele>313.221749</ele>
        <time>2021-11-07T11:52:48.298Z</time>
      </trkpt>
      <trkpt lat="47.544749" lon="7.799388">
        <ele>312.219359</ele>
        <time>2021-11-07T11:52:50.796Z</time>
      </trkpt>
      <trkpt lat="47.544827" lon="7.799356">
        <ele>311.772031</ele>
        <time>2021-11-07T11:52:51.778Z</time>
      </trkpt>
      <trkpt lat="47.544827" lon="7.799356">
        <ele>311.772031</ele>
        <time>2021-11-07T11:52:51.796Z</time>
      </trkpt>
      <trkpt lat="47.545096" lon="7.799250">
        <ele>310.233582</ele>
        <time>2021-11-07T11:52:55.592Z</time>
      </trkpt>
      <trkpt lat="47.545182" lon="7.799205">
        <ele>309.729485</ele>
        <time>2021-11-07T11:52:56.668Z</time>
      </trkpt>
      <trkpt lat="47.545396" lon="7.798977">
        <ele>308.272611</ele>
        <time>2021-11-07T11:53:00.279Z</time>
      </trkpt>
      <trkpt lat="47.545449" lon="7.798705">
        <ele>307.216418</ele>
        <time>2021-11-07T11:53:02.656Z</time>
      </trkpt>
      <trkpt lat="47.545511" lon="7.798680">
        <ele>306.861280</ele>
        <time>2021-11-07T11:53:03.500Z</time>
      </trkpt>
      <trkpt lat="47.545581" lon="7.798713">
        <ele>306.455276</ele>
        <time>2021-11-07T11:53:04.566Z</time>
      </trkpt>
      <trkpt lat="47.545731" lon="7.798810">
        <ele>305.550692</ele>
        <time>2021-11-07T11:53:06.721Z</time>
      </trkpt>
      <trkpt lat="47.545807" lon="7.798846">
        <ele>305.109694</ele>
        <time>2021-11-07T11:53:07.858Z</time>
      </trkpt>
      <trkpt lat="47.546418" lon="7.798980">
        <ele>302.895279</ele>
        <time>2021-11-07T11:53:16.775Z</time>
      </trkpt>
      <trkpt lat="47.546806" lon="7.799173">
        <ele>302.222844</ele>
        <time>2021-11-07T11:53:23.355Z</time>
      </trkpt>
      <trkpt lat="47.547540" lon="7.799538">
        <ele>300.950802</ele>
        <time>2021-11-07T11:53:36.536Z</time>
      </trkpt>
      <trkpt lat="47.547912" lon="7.799646">
        <ele>300.437471</ele>
        <time>2021-11-07T11:53:43.917Z</time>
      </trkpt>
      <trkpt lat="47.548459" lon="7.799691">
        <ele>300.361680</ele>
        <time>2021-11-07T11:53:54.908Z</time>
      </trkpt>
      <trkpt lat="47.548535" lon="7.799720">
        <ele>300.350822</ele>
        <time>2021-11-07T11:53:56.443Z</time>
      </trkpt>
      <trkpt lat="47.548514" lon="7.799795">
        <ele>300.343240</ele>
        <time>2021-11-07T11:53:57.517Z</time>
      </trkpt>
      <trkpt lat="47.548519" lon="7.799896">
        <ele>300.333784</ele>
        <time>2021-11-07T11:53:58.882Z</time>
      </trkpt>
      <trkpt lat="47.548545" lon="7.800404">
        <ele>300.286212</ele>
        <time>2021-11-07T11:54:05.698Z</time>
      </trkpt>
      <trkpt lat="47.548560" lon="7.800672">
        <ele>300.261100</ele>
        <time>2021-11-07T11:54:09.383Z</time>
      </trkpt>
      <trkpt lat="47.548569" lon="7.800838">
        <ele>300.245550</ele>
        <time>2021-11-07T11:54:11.632Z</time>
      </trkpt>
      <trkpt lat="47.548576" lon="7.800968">
        <ele>300.233372</ele>
        <time>2021-11-07T11:54:13.411Z</time>
      </trkpt>
      <trkpt lat="47.548596" lon="7.801213">
        <ele>300.210328</ele>
        <time>2021-11-07T11:54:16.782Z</time>
      </trkpt>
      <trkpt lat="47.548603" lon="7.801530">
        <ele>300.172170</ele>
        <time>2021-11-07T11:54:21.087Z</time>
      </trkpt>
      <trkpt lat="47.548607" lon="7.801690">
        <ele>300.150122</ele>
        <time>2021-11-07T11:54:23.282Z</time>
      </trkpt>
      <trkpt lat="47.548626" lon="7.802129">
        <ele>300.089546</ele>
        <time>2021-11-07T11:54:29.206Z</time>
      </trkpt>
      <trkpt lat="47.548877" lon="7.802168">
        <ele>300.038056</ele>
        <time>2021-11-07T11:54:34.200Z</time>
      </trkpt>
      <trkpt lat="47.549410" lon="7.802226">
        <ele>299.929022</ele>
        <time>2021-11-07T11:54:44.608Z</time>
      </trkpt>
      <trkpt lat="47.549481" lon="7.802234">
        <ele>299.914495</ele>
        <time>2021-11-07T11:54:45.947Z</time>
      </trkpt>
      <trkpt lat="47.549879" lon="7.802247">
        <ele>299.833276</ele>
        <time>2021-11-07T11:54:53.411Z</time>
      </trkpt>
      <trkpt lat="47.550146" lon="7.802262">
        <ele>299.747709</ele>
        <time>2021-11-07T11:54:58.486Z</time>
      </trkpt>
      <trkpt lat="47.550134" lon="7.803051">
        <ele>299.575341</ele>
        <time>2021-11-07T11:55:08.710Z</time>
      </trkpt>
      <trkpt lat="47.550196" lon="7.803120">
        <ele>299.550248</ele>
        <time>2021-11-07T11:55:10.169Z</time>
      </trkpt>
      <trkpt lat="47.550981" lon="7.803132">
        <ele>299.296213</ele>
        <time>2021-11-07T11:55:24.815Z</time>
      </trkpt>
      <trkpt lat="47.551163" lon="7.803129">
        <ele>299.269417</ele>
        <time>2021-11-07T11:55:28.219Z</time>
      </trkpt>
      <trkpt lat="47.551598" lon="7.803160">
        <ele>299.493313</ele>
        <time>2021-11-07T11:55:36.811Z</time>
      </trkpt>
      <trkpt lat="47.551666" lon="7.803144">
        <ele>299.528710</ele>
        <time>2021-11-07T11:55:41.556Z</time>
      </trkpt>
      <trkpt lat="47.551732" lon="7.803125">
        <ele>299.563276</ele>
        <time>2021-11-07T11:55:46.222Z</time>
      </trkpt>
      <trkpt lat="47.551744" lon="7.803277">
        <ele>299.616377</ele>
        <time>2021-11-07T11:55:47.917Z</time>
      </trkpt>
      <trkpt lat="47.551751" lon="7.803369">
        <ele>299.648502</ele>
        <time>2021-11-07T11:55:48.990Z</time>
      </trkpt>
      <trkpt lat="47.551692" lon="7.803510">
        <ele>299.706067</ele>
        <time>2021-11-07T11:55:51.665Z</time>
      </trkpt>
      <trkpt lat="47.551741" lon="7.804294">
        <ele>299.979267</ele>
        <time>2021-11-07T11:56:04.640Z</time>
      </trkpt>
      <trkpt lat="47.551744" lon="7.804473">
        <ele>300.041397</ele>
        <time>2021-11-07T11:56:07.163Z</time>
      </trkpt>
      <trkpt lat="47.551731" lon="7.804667">
        <ele>300.109043</ele>
        <time>2021-11-07T11:56:11.166Z</time>
      </trkpt>
      <trkpt lat="47.551709" lon="7.805000">
        <ele>300.222368</ele>
        <time>2021-11-07T11:56:15.635Z</time>
      </trkpt>
      <trkpt lat="47.551681" lon="7.805477">
        <ele>300.379422</ele>
        <time>2021-11-07T11:56:23.350Z</time>
      </trkpt>
      <trkpt lat="47.551679" lon="7.805623">
        <ele>300.427322</ele>
        <time>2021-11-07T11:56:25.855Z</time>
      </trkpt>
      <trkpt lat="47.551671" lon="7.806117">
        <ele>300.589409</ele>
        <time>2021-11-07T11:56:33.481Z</time>
      </trkpt>
      <trkpt lat="47.551651" lon="7.806246">
        <ele>300.632825</ele>
        <time>2021-11-07T11:56:36.391Z</time>
      </trkpt>
      <trkpt lat="47.551895" lon="7.806278">
        <ele>300.751874</ele>
        <time>2021-11-07T11:56:39.898Z</time>
      </trkpt>
      <trkpt lat="47.552015" lon="7.806307">
        <ele>300.810965</ele>
        <time>2021-11-07T11:56:42.787Z</time>
      </trkpt>
      <trkpt lat="47.552068" lon="7.806445">
        <ele>300.863046</ele>
        <time>2021-11-07T11:56:44.226Z</time>
      </trkpt>
      <trkpt lat="47.552398" lon="7.808880">
        <ele>300.366676</ele>
        <time>2021-11-07T11:57:06.345Z</time>
      </trkpt>
      <trkpt lat="47.552566" lon="7.810386">
        <ele>299.748394</ele>
        <time>2021-11-07T11:57:19.356Z</time>
      </trkpt>
      <trkpt lat="47.552711" lon="7.812955">
        <ele>298.597715</ele>
        <time>2021-11-07T11:57:41.965Z</time>
      </trkpt>
      <trkpt lat="47.552844" lon="7.816432">
        <ele>297.495568</ele>
        <time>2021-11-07T11:58:12.458Z</time>
      </trkpt>
      <trkpt lat="47.552948" lon="7.819358">
        <ele>297.817501</ele>
        <time>2021-11-07T11:58:43.688Z</time>
      </trkpt>
      <trkpt lat="47.552896" lon="7.820699">
        <ele>298.310538</ele>
        <time>2021-11-07T11:58:59.772Z</time>
      </trkpt>
      <trkpt lat="47.552567" lon="7.824508">
        <ele>300.195161</ele>
        <time>2021-11-07T11:59:46.182Z</time>
      </trkpt>
      <trkpt lat="47.552511" lon="7.826490">
        <ele>301.259938</ele>
        <time>2021-11-07T12:00:08.990Z</time>
      </trkpt>
      <trkpt lat="47.552491" lon="7.827227">
        <ele>301.720692</ele>
        <time>2021-11-07T12:00:17.921Z</time>
      </trkpt>
      <trkpt lat="47.552515" lon="7.828094">
        <ele>302.262736</ele>
        <time>2021-11-07T12:00:29.644Z</time>
      </trkpt>
      <trkpt lat="47.552477" lon="7.828294">
        <ele>302.470283</ele>
        <time>2021-11-07T12:00:32.275Z</time>
      </trkpt>
      <trkpt lat="47.552421" lon="7.828481">
        <ele>302.765259</ele>
        <time>2021-11-07T12:00:35.212Z</time>
      </trkpt>
      <trkpt lat="47.552404" lon="7.828582">
        <ele>302.915346</ele>
        <time>2021-11-07T12:00:36.899Z</time>
      </trkpt>
      <trkpt lat="47.552416" lon="7.828822">
        <ele>303.262337</ele>
        <time>2021-11-07T12:00:40.152Z</time>
      </trkpt>
      <trkpt lat="47.552554" lon="7.829266">
        <ele>303.967139</ele>
        <time>2021-11-07T12:00:47.524Z</time>
      </trkpt>
      <trkpt lat="47.552645" lon="7.830686">
        <ele>306.023765</ele>
        <time>2021-11-07T12:01:10.830Z</time>
      </trkpt>
      <trkpt lat="47.552690" lon="7.832598">
        <ele>309.825254</ele>
        <time>2021-11-07T12:01:46.307Z</time>
      </trkpt>
      <trkpt lat="47.552616" lon="7.832891">
        <ele>310.456814</ele>
        <time>2021-11-07T12:01:51.671Z</time>
      </trkpt>
      <trkpt lat="47.552556" lon="7.832977">
        <ele>310.706517</ele>
        <time>2021-11-07T12:01:54.403Z</time>
      </trkpt>
      <trkpt lat="47.552511" lon="7.833072">
        <ele>310.940822</ele>
        <time>2021-11-07T12:01:56.428Z</time>
      </trkpt>
      <trkpt lat="47.552467" lon="7.833198">
        <ele>311.227220</ele>
        <time>2021-11-07T12:01:58.830Z</time>
      </trkpt>
      <trkpt lat="47.552452" lon="7.833284">
        <ele>311.406539</ele>
        <time>2021-11-07T12:02:00.441Z</time>
      </trkpt>
      <trkpt lat="47.552696" lon="7.833789">
        <ele>312.432650</ele>
        <time>2021-11-07T12:02:11.473Z</time>
      </trkpt>
      <trkpt lat="47.552700" lon="7.833938">
        <ele>312.671639</ele>
        <time>2021-11-07T12:02:14.417Z</time>
      </trkpt>
      <trkpt lat="47.552714" lon="7.835010">
        <ele>314.390037</ele>
        <time>2021-11-07T12:02:32.854Z</time>
      </trkpt>
      <trkpt lat="47.552719" lon="7.836790">
        <ele>316.712582</ele>
        <time>2021-11-07T12:02:57.995Z</time>
      </trkpt>
      <trkpt lat="47.552699" lon="7.837965">
        <ele>317.890938</ele>
        <time>2021-11-07T12:03:14.214Z</time>
      </trkpt>
      <trkpt lat="47.552697" lon="7.838068">
        <ele>317.994242</ele>
        <time>2021-11-07T12:03:15.710Z</time>
      </trkpt>
      <trkpt lat="47.552736" lon="7.838578">
        <ele>318.509765</ele>
        <time>2021-11-07T12:03:22.815Z</time>
      </trkpt>
      <trkpt lat="47.552802" lon="7.839009">
        <ele>318.994259</ele>
        <time>2021-11-07T12:03:28.947Z</time>
      </trkpt>
      <trkpt lat="47.552939" lon="7.839526">
        <ele>319.603140</ele>
        <time>2021-11-07T12:03:36.765Z</time>
      </trkpt>
      <trkpt lat="47.553231" lon="7.841529">
        <ele>321.743459</ele>
        <time>2021-11-07T12:04:07.085Z</time>
      </trkpt>
      <trkpt lat="47.553216" lon="7.841849">
        <ele>322.008229</ele>
        <time>2021-11-07T12:04:11.609Z</time>
      </trkpt>
      <trkpt lat="47.553123" lon="7.842222">
        <ele>322.336449</ele>
        <time>2021-11-07T12:04:16.838Z</time>
      </trkpt>
      <trkpt lat="47.553133" lon="7.842431">
        <ele>322.509395</ele>
        <time>2021-11-07T12:04:19.968Z</time>
      </trkpt>
      <trkpt lat="47.552833" lon="7.842495">
        <ele>322.880084</ele>
        <time>2021-11-07T12:04:27.277Z</time>
      </trkpt>
      <trkpt lat="47.552380" lon="7.842592">
        <ele>323.439865</ele>
        <time>2021-11-07T12:04:38.325Z</time>
      </trkpt>
      <trkpt lat="47.551922" lon="7.842704">
        <ele>323.872827</ele>
        <time>2021-11-07T12:04:48.891Z</time>
      </trkpt>
      <trkpt lat="47.551668" lon="7.842770">
        <ele>324.078600</ele>
        <time>2021-11-07T12:04:54.850Z</time>
      </trkpt>
      <trkpt lat="47.551454" lon="7.842815">
        <ele>324.251073</ele>
        <time>2021-11-07T12:04:59.537Z</time>
      </trkpt>
      <trkpt lat="47.551344" lon="7.844621">
        <ele>325.331617</ele>
        <time>2021-11-07T12:05:22.052Z</time>
      </trkpt>
      <trkpt lat="47.551205" lon="7.846694">
        <ele>327.129321</ele>
        <time>2021-11-07T12:05:50.039Z</time>
      </trkpt>
      <trkpt lat="47.551184" lon="7.847206">
        <ele>327.620682</ele>
        <time>2021-11-07T12:05:57.425Z</time>
      </trkpt>
      <trkpt lat="47.551196" lon="7.847517">
        <ele>327.949795</ele>
        <time>2021-11-07T12:06:01.989Z</time>
      </trkpt>
      <trkpt lat="47.551669" lon="7.848083">
        <ele>328.901536</ele>
        <time>2021-11-07T12:06:15.074Z</time>
      </trkpt>
      <trkpt lat="47.551242" lon="7.848702">
        <ele>329.836666</ele>
        <time>2021-11-07T12:06:27.657Z</time>
      </trkpt>
      <trkpt lat="47.550975" lon="7.849066">
        <ele>330.353823</ele>
        <time>2021-11-07T12:06:34.973Z</time>
      </trkpt>
      <trkpt lat="47.550810" lon="7.849346">
        <ele>330.661378</ele>
        <time>2021-11-07T12:06:41.366Z</time>
      </trkpt>
      <trkpt lat="47.550488" lon="7.850081">
        <ele>331.386413</ele>
        <time>2021-11-07T12:06:56.832Z</time>
      </trkpt>
      <trkpt lat="47.550333" lon="7.850434">
        <ele>331.734864</ele>
        <time>2021-11-07T12:07:04.163Z</time>
      </trkpt>
      <trkpt lat="47.550009" lon="7.851173">
        <ele>332.379882</ele>
        <time>2021-11-07T12:07:18.759Z</time>
      </trkpt>
      <trkpt lat="47.549652" lon="7.851969">
        <ele>332.420471</ele>
        <time>2021-11-07T12:07:32.638Z</time>
      </trkpt>
      <trkpt lat="47.549535" lon="7.852225">
        <ele>332.433602</ele>
        <time>2021-11-07T12:07:36.695Z</time>
      </trkpt>
      <trkpt lat="47.549285" lon="7.852784">
        <ele>332.462082</ele>
        <time>2021-11-07T12:07:45.329Z</time>
      </trkpt>
      <trkpt lat="47.549285" lon="7.852783">
        <ele>332.462124</ele>
        <time>2021-11-07T12:07:45.339Z</time>
      </trkpt>
      <trkpt lat="47.549285" lon="7.852784">
        <ele>332.462167</ele>
        <time>2021-11-07T12:07:45.354Z</time>
      </trkpt>
      <trkpt lat="47.549708" lon="7.853279">
        <ele>332.423041</ele>
        <time>2021-11-07T12:07:55.754Z</time>
      </trkpt>
      <trkpt lat="47.550221" lon="7.853833">
        <ele>332.077915</ele>
        <time>2021-11-07T12:08:07.675Z</time>
      </trkpt>
      <trkpt lat="47.549883" lon="7.854434">
        <ele>331.790856</ele>
        <time>2021-11-07T12:08:14.352Z</time>
      </trkpt>
      <trkpt lat="47.549566" lon="7.855225">
        <ele>331.481524</ele>
        <time>2021-11-07T12:08:25.497Z</time>
      </trkpt>
      <trkpt lat="47.549362" lon="7.855774">
        <ele>331.364762</ele>
        <time>2021-11-07T12:08:33.419Z</time>
      </trkpt>
      <trkpt lat="47.548887" lon="7.857308">
        <ele>331.050316</ele>
        <time>2021-11-07T12:08:55.527Z</time>
      </trkpt>
      <trkpt lat="47.548743" lon="7.857692">
        <ele>331.115404</ele>
        <time>2021-11-07T12:09:01.498Z</time>
      </trkpt>
      <trkpt lat="47.548701" lon="7.857893">
        <ele>331.202297</ele>
        <time>2021-11-07T12:09:04.470Z</time>
      </trkpt>
      <trkpt lat="47.548686" lon="7.857973">
        <ele>331.236586</ele>
        <time>2021-11-07T12:09:05.593Z</time>
      </trkpt>
      <trkpt lat="47.548611" lon="7.858381">
        <ele>331.411215</ele>
        <time>2021-11-07T12:09:11.807Z</time>
      </trkpt>
      <trkpt lat="47.548334" lon="7.859801">
        <ele>332.021634</ele>
        <time>2021-11-07T12:09:34.844Z</time>
      </trkpt>
      <trkpt lat="47.548049" lon="7.860929">
        <ele>332.114634</ele>
        <time>2021-11-07T12:09:55.863Z</time>
      </trkpt>
      <trkpt lat="47.547930" lon="7.861711">
        <ele>332.114634</ele>
        <time>2021-11-07T12:10:10.726Z</time>
      </trkpt>
      <trkpt lat="47.547568" lon="7.863151">
        <ele>332.114634</ele>
        <time>2021-11-07T12:10:37.698Z</time>
      </trkpt>
      <trkpt lat="47.547561" lon="7.863172">
        <ele>332.114634</ele>
        <time>2021-11-07T12:10:38.365Z</time>
      </trkpt>
    </trkseg>
  </trk>
</gpx>